Wetterdaten: Donnerstag, 29.04.2021
Datum Zeit Temp. Aussen Temp. o. S. Temp +5cm Feuchte Auss Luftdruck Regen Sonnenschein Regendauer Solar Windben Empfang
29.04.2021 00:00 14,8 C 13,3 C 10,6 C 53 % 1000,7 hPa 0,0 l/m 0 min 0 min 0 W/m 3,2 km/h (1 Bft) 95,74 %
29.04.2021 00:02 14,7 C 13,3 C 10,6 C 53 % 1000,7 hPa 0,0 l/m 0 min 0 min 0 W/m 0,0 km/h (0 Bft) 90,00 %
29.04.2021 00:04 14,6 C 13,3 C 10,6 C 52 % 1000,7 hPa 0,0 l/m 0 min 0 min 0 W/m 6,4 km/h (2 Bft) 95,74 %
29.04.2021 00:08 14,6 C 13,3 C 10,6 C 54 % 1000,6 hPa 0,0 l/m 0 min 0 min 0 W/m 3,2 km/h (1 Bft) 94,68 %
29.04.2021 00:10 14,5 C 13,3 C 10,6 C 54 % 1000,5 hPa 0,0 l/m 0 min 0 min 0 W/m 3,2 km/h (1 Bft) 95,65 %
29.04.2021 00:12 14,5 C 12,8 C 10,0 C 53 % 1000,5 hPa 0,0 l/m 0 min 0 min 0 W/m 6,4 km/h (2 Bft) 97,87 %
29.04.2021 00:14 14,4 C 12,8 C 10,0 C 53 % 1000,5 hPa 0,0 l/m 0 min 0 min 0 W/m 3,2 km/h (1 Bft) 95,74 %
29.04.2021 00:16 14,4 C 12,8 C 10,0 C 53 % 1000,5 hPa 0,0 l/m 0 min 0 min 0 W/m 0,0 km/h (0 Bft) 93,62 %
29.04.2021 00:18 14,4 C 12,8 C 10,0 C 53 % 1000,5 hPa 0,0 l/m 0 min 0 min 0 W/m 6,4 km/h (2 Bft) 95,74 %
29.04.2021 00:20 14,3 C 12,8 C 10,0 C 53 % 1000,4 hPa 0,0 l/m 0 min 0 min 0 W/m 3,2 km/h (1 Bft) 95,74 %
29.04.2021 00:22 14,3 C 12,8 C 10,0 C 53 % 1000,5 hPa 0,0 l/m 0 min 0 min 0 W/m 0,0 km/h (0 Bft) 95,65 %
29.04.2021 00:24 14,2 C 12,8 C 10,0 C 53 % 1000,5 hPa 0,0 l/m 0 min 0 min 0 W/m 3,2 km/h (1 Bft) 93,62 %
29.04.2021 00:26 14,2 C 12,8 C 10,0 C 54 % 1000,4 hPa 0,0 l/m 0 min 0 min 0 W/m 3,2 km/h (1 Bft) 93,62 %
29.04.2021 00:28 14,2 C 12,8 C 10,0 C 54 % 1000,4 hPa 0,0 l/m 0 min 0 min 0 W/m 0,0 km/h (0 Bft) 95,74 %
29.04.2021 00:30 14,2 C 12,8 C 10,0 C 54 % 1000,4 hPa 0,0 l/m 0 min 0 min 0 W/m 3,2 km/h (1 Bft) 95,74 %
29.04.2021 00:32 14,1 C 12,8 C 10,0 C 54 % 1000,4 hPa 0,0 l/m 0 min 0 min 0 W/m 0,0 km/h (0 Bft) 95,74 %
29.04.2021 00:34 14,1 C 12,2 C 9,5 C 55 % 1000,4 hPa 0,0 l/m 0 min 0 min 0 W/m 0,0 km/h (0 Bft) 93,48 %
29.04.2021 00:36 14,1 C 12,2 C 9,5 C 55 % 1000,4 hPa 0,0 l/m 0 min 0 min 0 W/m 0,0 km/h (0 Bft) 95,74 %
29.04.2021 00:38 14,0 C 12,2 C 9,5 C 57 % 1000,4 hPa 0,0 l/m 0 min 0 min 0 W/m 3,2 km/h (1 Bft) 97,87 %
29.04.2021 00:40 14,0 C 12,2 C 8,9 C 58 % 1000,4 hPa 0,0 l/m 0 min 0 min 0 W/m 3,2 km/h (1 Bft) 97,87 %
29.04.2021 00:42 13,9 C 11,7 C 8,9 C 56 % 1000,3 hPa 0,0 l/m 0 min 0 min 0 W/m 3,2 km/h (1 Bft) 97,87 %
29.04.2021 00:44 13,9 C 11,7 C 8,9 C 56 % 1000,4 hPa 0,0 l/m 0 min 0 min 0 W/m 3,2 km/h (1 Bft) 93,62 %
29.04.2021 00:46 13,8 C 11,7 C 8,9 C 56 % 1000,3 hPa 0,0 l/m 0 min 0 min 0 W/m 0,0 km/h (0 Bft) 97,83 %
29.04.2021 00:48 13,8 C 11,7 C 8,9 C 57 % 1000,4 hPa 0,0 l/m 0 min 0 min 0 W/m 3,2 km/h (1 Bft) 97,87 %
29.04.2021 00:50 13,7 C 11,7 C 8,9 C 58 % 1000,3 hPa 0,0 l/m 0 min 0 min 0 W/m 0,0 km/h (0 Bft) 97,87 %
29.04.2021 00:52 13,6 C 11,7 C 8,9 C 58 % 1000,3 hPa 0,0 l/m 0 min 0 min 0 W/m 0,0 km/h (0 Bft) 97,87 %
29.04.2021 00:54 13,6 C 11,1 C 8,9 C 59 % 1000,3 hPa 0,0 l/m 0 min 0 min 0 W/m 0,0 km/h (0 Bft) 97,87 %
29.04.2021 00:56 13,5 C 11,1 C 8,4 C 60 % 1000,3 hPa 0,0 l/m 0 min 0 min 0 W/m 0,0 km/h (0 Bft) 100,00 %
29.04.2021 00:58 13,5 C 11,1 C 8,4 C 59 % 1000,3 hPa 0,0 l/m 0 min 0 min 0 W/m 0,0 km/h (0 Bft) 100,00 %
29.04.2021 01:00 13,4 C 11,1 C 8,9 C 58 % 1000,3 hPa 0,0 l/m 0 min 0 min 0 W/m 0,0 km/h (0 Bft) 95,74 %
29.04.2021 01:02 13,3 C 11,7 C 8,9 C 58 % 1000,3 hPa 0,0 l/m 0 min 0 min 0 W/m 6,4 km/h (2 Bft) 100,00 %
29.04.2021 01:04 13,1 C 11,7 C 8,9 C 59 % 1000,4 hPa 0,0 l/m 0 min 0 min 0 W/m 3,2 km/h (1 Bft) 97,87 %
29.04.2021 01:06 13,0 C 11,7 C 8,9 C 59 % 1000,4 hPa 0,0 l/m 0 min 0 min 0 W/m 0,0 km/h (0 Bft) 100,00 %
29.04.2021 01:08 12,9 C 11,7 C 8,9 C 60 % 1000,4 hPa 0,0 l/m 0 min 0 min 0 W/m 0,0 km/h (0 Bft) 97,83 %
29.04.2021 01:10 12,9 C 11,1 C 8,9 C 60 % 1000,4 hPa 0,0 l/m 0 min 0 min 0 W/m 0,0 km/h (0 Bft) 100,00 %
29.04.2021 01:12 12,8 C 11,1 C 8,9 C 60 % 1000,5 hPa 0,0 l/m 0 min 0 min 0 W/m 0,0 km/h (0 Bft) 100,00 %
29.04.2021 01:14 12,8 C 11,1 C 8,9 C 60 % 1000,5 hPa 0,0 l/m 0 min 0 min 0 W/m 0,0 km/h (0 Bft) 100,00 %
29.04.2021 01:16 12,7 C 11,1 C 8,4 C 60 % 1000,5 hPa 0,0 l/m 0 min 0 min 0 W/m 0,0 km/h (0 Bft) 95,74 %
29.04.2021 01:18 12,6 C 11,1 C 8,4 C 61 % 1000,5 hPa 0,0 l/m 0 min 0 min 0 W/m 0,0 km/h (0 Bft) 100,00 %
29.04.2021 01:20 12,6 C 11,1 C 8,4 C 61 % 1000,5 hPa 0,0 l/m 0 min 0 min 0 W/m 0,0 km/h (0 Bft) 97,83 %
29.04.2021 01:22 12,5 C 11,1 C 8,4 C 61 % 1000,5 hPa 0,0 l/m 0 min 0 min 0 W/m 3,2 km/h (1 Bft) 100,00 %
29.04.2021 01:24 12,5 C 11,1 C 8,4 C 60 % 1000,5 hPa 0,0 l/m 0 min 0 min 0 W/m 0,0 km/h (0 Bft) 97,87 %
29.04.2021 01:26 12,5 C 11,1 C 8,4 C 61 % 1000,5 hPa 0,0 l/m 0 min 0 min 0 W/m 3,2 km/h (1 Bft) 100,00 %
29.04.2021 01:28 12,4 C 10,6 C 8,4 C 61 % 1000,4 hPa 0,0 l/m 0 min 0 min 0 W/m 3,2 km/h (1 Bft) 93,62 %
29.04.2021 01:30 12,4 C 10,6 C 8,4 C 61 % 1000,4 hPa 0,0 l/m 0 min 0 min 0 W/m 3,2 km/h (1 Bft) 97,87 %
29.04.2021 01:32 12,3 C 11,1 C 8,4 C 61 % 1000,4 hPa 0,0 l/m 0 min 0 min 0 W/m 9,7 km/h (2 Bft) 97,83 %
29.04.2021 01:34 12,2 C 11,1 C 8,4 C 61 % 1000,4 hPa 0,0 l/m 0 min 0 min 0 W/m 6,4 km/h (2 Bft) 97,87 %
29.04.2021 01:36 12,2 C 11,1 C 8,4 C 61 % 1000,4 hPa 0,0 l/m 0 min 0 min 0 W/m 3,2 km/h (1 Bft) 95,74 %
29.04.2021 01:38 12,1 C 10,6 C 8,4 C 62 % 1000,3 hPa 0,0 l/m 0 min 0 min 0 W/m 3,2 km/h (1 Bft) 97,87 %
29.04.2021 01:40 12,1 C 10,6 C 8,4 C 63 % 1000,3 hPa 0,0 l/m 0 min 0 min 0 W/m 0,0 km/h (0 Bft) 97,87 %
29.04.2021 01:42 12,1 C 10,6 C 7,8 C 63 % 1000,4 hPa 0,0 l/m 0 min 0 min 0 W/m 9,7 km/h (2 Bft) 93,62 %
29.04.2021 01:44 12,0 C 10,6 C 8,4 C 61 % 1000,4 hPa 0,0 l/m 0 min 0 min 0 W/m 3,2 km/h (1 Bft) 97,83 %
29.04.2021 01:46 12,0 C 11,1 C 8,4 C 61 % 1000,4 hPa 0,0 l/m 0 min 0 min 0 W/m 3,2 km/h (1 Bft) 61,70 %
29.04.2021 01:48 12,0 C 11,1 C 8,4 C 60 % 1000,3 hPa 0,0 l/m 0 min 0 min 0 W/m 6,4 km/h (2 Bft) 90,91 %
29.04.2021 01:50 12,0 C 11,1 C 8,4 C 60 % 1000,3 hPa 0,0 l/m 0 min 0 min 0 W/m 3,2 km/h (1 Bft) 97,87 %
29.04.2021 01:52 11,9 C 10,6 C 8,4 C 60 % 1000,4 hPa 0,0 l/m 0 min 0 min 0 W/m 0,0 km/h (0 Bft) 97,87 %
29.04.2021 01:54 11,9 C 10,6 C 8,4 C 61 % 1000,3 hPa 0,0 l/m 0 min 0 min 0 W/m 3,2 km/h (1 Bft) 97,87 %
29.04.2021 01:56 11,9 C 10,6 C 8,4 C 61 % 1000,3 hPa 0,0 l/m 0 min 0 min 0 W/m 3,2 km/h (1 Bft) 97,83 %
29.04.2021 01:58 11,9 C 10,6 C 8,4 C 61 % 1000,3 hPa 0,0 l/m 0 min 0 min 0 W/m 0,0 km/h (0 Bft) 97,87 %
29.04.2021 02:00 11,8 C 10,6 C 8,4 C 61 % 1000,3 hPa 0,0 l/m 0 min 0 min 0 W/m 0,0 km/h (0 Bft) 95,74 %
29.04.2021 02:02 11,8 C 10,6 C 8,4 C 61 % 1000,4 hPa 0,0 l/m 0 min 0 min 0 W/m 3,2 km/h (1 Bft) 100,00 %
29.04.2021 02:04 11,7 C 10,6 C 8,4 C 61 % 1000,4 hPa 0,0 l/m 0 min 0 min 0 W/m 6,4 km/h (2 Bft) 100,00 %
29.04.2021 02:06 11,7 C 10,6 C 7,8 C 62 % 1000,3 hPa 0,0 l/m 0 min 0 min 0 W/m 0,0 km/h (0 Bft) 100,00 %
29.04.2021 02:08 11,6 C 10,0 C 7,8 C 62 % 1000,4 hPa 0,0 l/m 0 min 0 min 0 W/m 0,0 km/h (0 Bft) 100,00 %
29.04.2021 02:10 11,6 C 10,0 C 7,8 C 63 % 1000,4 hPa 0,0 l/m 0 min 0 min 0 W/m 3,2 km/h (1 Bft) 100,00 %
29.04.2021 02:12 11,5 C 10,0 C 7,8 C 63 % 1000,3 hPa 0,0 l/m 0 min 0 min 0 W/m 3,2 km/h (1 Bft) 100,00 %
29.04.2021 02:14 11,4 C 10,0 C 7,3 C 64 % 1000,3 hPa 0,0 l/m 0 min 0 min 0 W/m 3,2 km/h (1 Bft) 100,00 %
29.04.2021 02:16 11,3 C 10,0 C 7,3 C 64 % 1000,3 hPa 0,0 l/m 0 min 0 min 0 W/m 0,0 km/h (0 Bft) 100,00 %
29.04.2021 02:18 11,3 C 10,0 C 7,3 C 64 % 1000,3 hPa 0,0 l/m 0 min 0 min 0 W/m 3,2 km/h (1 Bft) 100,00 %
29.04.2021 02:20 11,2 C 10,0 C 7,3 C 64 % 1000,2 hPa 0,0 l/m 0 min 0 min 0 W/m 3,2 km/h (1 Bft) 100,00 %
29.04.2021 02:22 11,1 C 9,4 C 7,3 C 64 % 1000,2 hPa 0,0 l/m 0 min 0 min 0 W/m 3,2 km/h (1 Bft) 97,87 %
29.04.2021 02:24 11,0 C 9,4 C 7,3 C 64 % 1000,3 hPa 0,0 l/m 0 min 0 min 0 W/m 3,2 km/h (1 Bft) 100,00 %
29.04.2021 02:26 11,0 C 9,4 C 7,3 C 65 % 1000,3 hPa 0,0 l/m 0 min 0 min 0 W/m 0,0 km/h (0 Bft) 100,00 %
29.04.2021 02:28 10,9 C 9,4 C 7,3 C 65 % 1000,3 hPa 0,0 l/m 0 min 0 min 0 W/m 0,0 km/h (0 Bft) 100,00 %
29.04.2021 02:30 10,9 C 9,4 C 7,3 C 65 % 1000,3 hPa 0,0 l/m 0 min 0 min 0 W/m 0,0 km/h (0 Bft) 100,00 %
29.04.2021 02:32 10,8 C 9,4 C 7,3 C 66 % 1000,3 hPa 0,0 l/m 0 min 0 min 0 W/m 0,0 km/h (0 Bft) 100,00 %
29.04.2021 02:34 10,8 C 9,4 C 7,3 C 65 % 1000,3 hPa 0,0 l/m 0 min 0 min 0 W/m 0,0 km/h (0 Bft) 100,00 %
29.04.2021 02:36 10,8 C 9,4 C 7,3 C 65 % 1000,3 hPa 0,0 l/m 0 min 0 min 0 W/m 0,0 km/h (0 Bft) 100,00 %
29.04.2021 02:38 10,8 C 9,4 C 7,3 C 65 % 1000,3 hPa 0,0 l/m 0 min 0 min 0 W/m 3,2 km/h (1 Bft) 100,00 %
29.04.2021 02:40 10,7 C 9,4 C 7,3 C 65 % 1000,4 hPa 0,0 l/m 0 min 0 min 0 W/m 0,0 km/h (0 Bft) 100,00 %
29.04.2021 02:42 10,7 C 9,4 C 7,3 C 65 % 1000,3 hPa 0,0 l/m 0 min 0 min 0 W/m 0,0 km/h (0 Bft) 100,00 %
29.04.2021 02:44 10,6 C 9,4 C 7,3 C 65 % 1000,4 hPa 0,0 l/m 0 min 0 min 0 W/m 0,0 km/h (0 Bft) 100,00 %
29.04.2021 02:46 10,6 C 9,4 C 7,3 C 65 % 1000,4 hPa 0,0 l/m 0 min 0 min 0 W/m 0,0 km/h (0 Bft) 97,87 %
29.04.2021 02:48 10,6 C 9,4 C 7,3 C 65 % 1000,4 hPa 0,0 l/m 0 min 0 min 0 W/m 6,4 km/h (2 Bft) 100,00 %
29.04.2021 02:50 10,6 C 9,4 C 7,3 C 65 % 1000,4 hPa 0,0 l/m 0 min 0 min 0 W/m 3,2 km/h (1 Bft) 100,00 %
29.04.2021 02:52 10,6 C 9,4 C 7,3 C 65 % 1000,4 hPa 0,0 l/m 0 min 0 min 0 W/m 0,0 km/h (0 Bft) 100,00 %
29.04.2021 02:54 10,5 C 9,4 C 7,3 C 66 % 1000,4 hPa 0,0 l/m 0 min 0 min 0 W/m 0,0 km/h (0 Bft) 100,00 %
29.04.2021 02:56 10,5 C 9,4 C 6,7 C 66 % 1000,4 hPa 0,0 l/m 0 min 0 min 0 W/m 3,2 km/h (1 Bft) 100,00 %
29.04.2021 02:58 10,5 C 9,4 C 6,7 C 66 % 1000,4 hPa 0,0 l/m 0 min 0 min 0 W/m 0,0 km/h (0 Bft) 100,00 %
29.04.2021 03:00 10,5 C 9,4 C 6,7 C 66 % 1000,4 hPa 0,0 l/m 0 min 0 min 0 W/m 3,2 km/h (1 Bft) 100,00 %
29.04.2021 03:02 10,5 C 9,4 C 7,3 C 66 % 1000,4 hPa 0,0 l/m 0 min 0 min 0 W/m 3,2 km/h (1 Bft) 100,00 %
29.04.2021 03:04 10,4 C 9,4 C 7,3 C 66 % 1000,4 hPa 0,0 l/m 0 min 0 min 0 W/m 3,2 km/h (1 Bft) 97,87 %
29.04.2021 03:06 10,4 C 9,4 C 7,3 C 66 % 1000,4 hPa 0,0 l/m 0 min 0 min 0 W/m 3,2 km/h (1 Bft) 100,00 %
29.04.2021 03:08 10,4 C 9,4 C 7,3 C 66 % 1000,4 hPa 0,0 l/m 0 min 0 min 0 W/m 3,2 km/h (1 Bft) 100,00 %
29.04.2021 03:10 10,4 C 9,4 C 7,3 C 67 % 1000,4 hPa 0,0 l/m 0 min 0 min 0 W/m 6,4 km/h (2 Bft) 97,87 %
29.04.2021 03:12 10,4 C 9,4 C 7,3 C 67 % 1000,4 hPa 0,0 l/m 0 min 0 min 0 W/m 6,4 km/h (2 Bft) 100,00 %
29.04.2021 03:14 10,4 C 9,4 C 7,3 C 67 % 1000,4 hPa 0,0 l/m 0 min 0 min 0 W/m 6,4 km/h (2 Bft) 100,00 %
29.04.2021 03:16 10,3 C 9,4 C 7,3 C 67 % 1000,4 hPa 0,0 l/m 0 min 0 min 0 W/m 6,4 km/h (2 Bft) 100,00 %
29.04.2021 03:18 10,3 C 9,4 C 7,3 C 67 % 1000,4 hPa 0,0 l/m 0 min 0 min 0 W/m 3,2 km/h (1 Bft) 97,87 %
29.04.2021 03:20 10,3 C 9,4 C 7,3 C 67 % 1000,4 hPa 0,0 l/m 0 min 0 min 0 W/m 3,2 km/h (1 Bft) 100,00 %
29.04.2021 03:22 10,3 C 9,4 C 7,3 C 67 % 1000,4 hPa 0,0 l/m 0 min 0 min 0 W/m 3,2 km/h (1 Bft) 100,00 %
29.04.2021 03:24 10,3 C 9,4 C 7,3 C 67 % 1000,4 hPa 0,0 l/m 0 min 0 min 0 W/m 3,2 km/h (1 Bft) 97,87 %
29.04.2021 03:26 10,3 C 9,4 C 7,3 C 67 % 1000,4 hPa 0,0 l/m 0 min 0 min 0 W/m 6,4 km/h (2 Bft) 97,87 %
29.04.2021 03:28 10,3 C 9,4 C 7,3 C 68 % 1000,4 hPa 0,0 l/m 0 min 0 min 0 W/m 3,2 km/h (1 Bft) 57,45 %
29.04.2021 03:30 10,4 C 9,4 C 7,3 C 68 % 1000,3 hPa 0,0 l/m 0 min 0 min 0 W/m 3,2 km/h (1 Bft) 93,75 %
29.04.2021 03:32 10,4 C 9,4 C 7,3 C 69 % 1000,4 hPa 0,0 l/m 0 min 0 min 0 W/m 9,7 km/h (2 Bft) 97,87 %
29.04.2021 03:34 10,4 C 9,4 C 7,3 C 69 % 1000,4 hPa 0,0 l/m 0 min 0 min 0 W/m 9,7 km/h (2 Bft) 95,74 %
29.04.2021 03:36 10,4 C 10,0 C 7,3 C 70 % 1000,4 hPa 0,0 l/m 0 min 0 min 0 W/m 9,7 km/h (2 Bft) 95,74 %
29.04.2021 03:38 10,4 C 10,0 C 7,3 C 71 % 1000,4 hPa 0,0 l/m 0 min 0 min 0 W/m 6,4 km/h (2 Bft) 95,74 %
29.04.2021 03:40 10,4 C 10,0 C 7,8 C 71 % 1000,4 hPa 0,0 l/m 0 min 0 min 0 W/m 6,4 km/h (2 Bft) 97,87 %
29.04.2021 03:42 10,5 C 10,0 C 7,8 C 71 % 1000,4 hPa 0,0 l/m 0 min 0 min 0 W/m 6,4 km/h (2 Bft) 95,65 %
29.04.2021 03:44 10,5 C 10,0 C 7,8 C 71 % 1000,4 hPa 0,0 l/m 0 min 0 min 0 W/m 6,4 km/h (2 Bft) 91,49 %
29.04.2021 03:46 10,5 C 10,0 C 7,8 C 72 % 1000,4 hPa 0,0 l/m 0 min 0 min 0 W/m 12,9 km/h (3 Bft) 95,74 %
29.04.2021 03:48 10,5 C 10,0 C 7,8 C 72 % 1000,4 hPa 0,0 l/m 0 min 0 min 0 W/m 12,9 km/h (3 Bft) 95,74 %
29.04.2021 03:50 10,6 C 10,0 C 7,8 C 72 % 1000,4 hPa 0,0 l/m 0 min 0 min 0 W/m 12,9 km/h (3 Bft) 95,74 %
29.04.2021 03:52 10,6 C 10,0 C 7,8 C 72 % 1000,4 hPa 0,0 l/m 0 min 0 min 0 W/m 16,1 km/h (3 Bft) 95,74 %
29.04.2021 03:54 10,6 C 10,0 C 7,8 C 72 % 1000,5 hPa 0,0 l/m 0 min 0 min 0 W/m 6,4 km/h (2 Bft) 95,65 %
29.04.2021 03:56 10,7 C 10,0 C 7,8 C 72 % 1000,5 hPa 0,0 l/m 0 min 0 min 0 W/m 6,4 km/h (2 Bft) 95,74 %
29.04.2021 03:58 10,7 C 10,0 C 7,8 C 73 % 1000,5 hPa 0,0 l/m 0 min 0 min 0 W/m 6,4 km/h (2 Bft) 95,74 %
29.04.2021 04:00 10,8 C 10,0 C 7,8 C 73 % 1000,5 hPa 0,0 l/m 0 min 0 min 0 W/m 19,3 km/h (3 Bft) 95,74 %
29.04.2021 04:02 10,8 C 10,0 C 7,8 C 73 % 1000,5 hPa 0,0 l/m 0 min 0 min 0 W/m 12,9 km/h (3 Bft) 100,00 %
29.04.2021 04:04 10,8 C 10,0 C 7,8 C 73 % 1000,6 hPa 0,0 l/m 0 min 0 min 0 W/m 16,1 km/h (3 Bft) 95,74 %
29.04.2021 04:06 10,9 C 10,0 C 7,8 C 73 % 1000,6 hPa 0,0 l/m 0 min 0 min 0 W/m 19,3 km/h (3 Bft) 100,00 %
29.04.2021 04:08 10,9 C 10,6 C 7,8 C 74 % 1000,6 hPa 0,0 l/m 0 min 0 min 0 W/m 12,9 km/h (3 Bft) 98,15 %
29.04.2021 04:10 10,9 C 10,6 C 7,8 C 74 % 1000,6 hPa 0,0 l/m 0 min 0 min 0 W/m 12,9 km/h (3 Bft) 94,29 %
29.04.2021 04:12 10,9 C 10,6 C 7,8 C 74 % 1000,6 hPa 0,0 l/m 0 min 0 min 0 W/m 12,9 km/h (3 Bft) 96,15 %
29.04.2021 04:14 10,9 C 10,6 C 7,8 C 74 % 1000,6 hPa 0,0 l/m 0 min 0 min 0 W/m 9,7 km/h (2 Bft) 93,62 %
29.04.2021 04:16 11,0 C 10,6 C 8,4 C 74 % 1000,5 hPa 0,0 l/m 0 min 0 min 0 W/m 9,7 km/h (2 Bft) 97,87 %
29.04.2021 04:18 11,0 C 10,6 C 8,4 C 74 % 1000,5 hPa 0,0 l/m 0 min 0 min 0 W/m 16,1 km/h (3 Bft) 97,83 %
29.04.2021 04:20 11,0 C 10,6 C 8,4 C 74 % 1000,6 hPa 0,0 l/m 0 min 0 min 0 W/m 12,9 km/h (3 Bft) 95,74 %
29.04.2021 04:22 11,0 C 10,6 C 8,4 C 74 % 1000,6 hPa 0,0 l/m 0 min 0 min 0 W/m 19,3 km/h (3 Bft) 100,00 %
29.04.2021 04:24 11,1 C 10,6 C 8,4 C 75 % 1000,6 hPa 0,0 l/m 0 min 0 min 0 W/m 22,5 km/h (4 Bft) 100,00 %
29.04.2021 04:26 11,1 C 10,6 C 8,4 C 75 % 1000,6 hPa 0,0 l/m 0 min 0 min 0 W/m 16,1 km/h (3 Bft) 97,87 %
29.04.2021 04:28 11,1 C 10,6 C 8,4 C 75 % 1000,6 hPa 0,0 l/m 0 min 0 min 0 W/m 22,5 km/h (4 Bft) 97,87 %
29.04.2021 04:30 11,2 C 10,6 C 8,4 C 75 % 1000,6 hPa 0,0 l/m 0 min 0 min 0 W/m 12,9 km/h (3 Bft) 100,00 %
29.04.2021 04:32 11,2 C 10,6 C 8,4 C 75 % 1000,5 hPa 0,0 l/m 0 min 0 min 0 W/m 16,1 km/h (3 Bft) 100,00 %
29.04.2021 04:34 11,2 C 10,6 C 8,4 C 75 % 1000,6 hPa 0,0 l/m 0 min 0 min 0 W/m 19,3 km/h (3 Bft) 100,00 %
29.04.2021 04:36 11,3 C 10,6 C 8,4 C 76 % 1000,6 hPa 0,0 l/m 0 min 0 min 0 W/m 19,3 km/h (3 Bft) 95,74 %
29.04.2021 04:38 11,3 C 10,6 C 8,4 C 76 % 1000,5 hPa 0,0 l/m 0 min 0 min 0 W/m 16,1 km/h (3 Bft) 97,87 %
29.04.2021 04:40 11,3 C 10,6 C 8,4 C 76 % 1000,6 hPa 0,0 l/m 0 min 0 min 0 W/m 12,9 km/h (3 Bft) 97,87 %
29.04.2021 04:42 11,3 C 10,6 C 8,4 C 76 % 1000,5 hPa 0,0 l/m 0 min 0 min 0 W/m 16,1 km/h (3 Bft) 95,65 %
29.04.2021 04:44 11,3 C 10,6 C 8,4 C 76 % 1000,5 hPa 0,0 l/m 0 min 0 min 0 W/m 22,5 km/h (4 Bft) 95,74 %
29.04.2021 04:46 11,3 C 10,6 C 8,4 C 76 % 1000,6 hPa 0,0 l/m 0 min 0 min 0 W/m 22,5 km/h (4 Bft) 97,87 %
29.04.2021 04:48 11,4 C 10,6 C 8,4 C 76 % 1000,5 hPa 0,0 l/m 0 min 0 min 0 W/m 25,7 km/h (4 Bft) 95,74 %
29.04.2021 04:50 11,4 C 10,6 C 8,4 C 76 % 1000,5 hPa 0,0 l/m 0 min 0 min 0 W/m 16,1 km/h (3 Bft) 95,74 %
29.04.2021 04:52 11,4 C 10,6 C 8,4 C 76 % 1000,6 hPa 0,0 l/m 0 min 0 min 0 W/m 32,2 km/h (5 Bft) 97,87 %
29.04.2021 04:54 11,4 C 10,6 C 8,4 C 76 % 1000,6 hPa 0,0 l/m 0 min 0 min 0 W/m 25,7 km/h (4 Bft) 97,83 %
29.04.2021 04:56 11,4 C 10,6 C 8,4 C 76 % 1000,6 hPa 0,0 l/m 0 min 0 min 0 W/m 25,7 km/h (4 Bft) 97,87 %
29.04.2021 04:58 11,4 C 10,6 C 8,4 C 76 % 1000,5 hPa 0,0 l/m 0 min 0 min 0 W/m 25,7 km/h (4 Bft) 97,87 %
29.04.2021 05:00 11,4 C 10,6 C 8,4 C 76 % 1000,6 hPa 0,0 l/m 0 min 0 min 0 W/m 22,5 km/h (4 Bft) 97,87 %
29.04.2021 05:02 11,4 C 10,6 C 8,4 C 76 % 1000,5 hPa 0,0 l/m 0 min 0 min 0 W/m 48,3 km/h (6 Bft) 93,62 %
29.04.2021 05:04 11,4 C 10,6 C 8,4 C 76 % 1000,6 hPa 0,0 l/m 0 min 0 min 0 W/m 35,4 km/h (5 Bft) 97,87 %
29.04.2021 05:06 11,4 C 10,6 C 8,4 C 76 % 1000,6 hPa 0,0 l/m 0 min 0 min 0 W/m 22,5 km/h (4 Bft) 97,83 %
29.04.2021 05:08 11,4 C 10,6 C 8,4 C 76 % 1000,7 hPa 0,0 l/m 0 min 0 min 0 W/m 22,5 km/h (4 Bft) 97,87 %
29.04.2021 05:10 11,5 C 10,6 C 8,4 C 76 % 1000,7 hPa 0,0 l/m 0 min 0 min 0 W/m 25,7 km/h (4 Bft) 97,87 %
29.04.2021 05:12 11,5 C 10,6 C 8,4 C 76 % 1000,6 hPa 0,0 l/m 0 min 0 min 0 W/m 22,5 km/h (4 Bft) 95,74 %
29.04.2021 05:14 11,5 C 10,6 C 8,4 C 76 % 1000,6 hPa 0,0 l/m 0 min 0 min 0 W/m 22,5 km/h (4 Bft) 97,87 %
29.04.2021 05:16 11,4 C 10,6 C 8,4 C 76 % 1000,6 hPa 0,0 l/m 0 min 0 min 0 W/m 12,9 km/h (3 Bft) 97,87 %
29.04.2021 05:18 11,4 C 10,6 C 8,4 C 76 % 1000,6 hPa 0,0 l/m 0 min 0 min 0 W/m 19,3 km/h (3 Bft) 97,83 %
29.04.2021 05:20 11,4 C 10,6 C 8,4 C 76 % 1000,7 hPa 0,0 l/m 0 min 0 min 0 W/m 16,1 km/h (3 Bft) 95,74 %
29.04.2021 05:22 11,4 C 10,6 C 8,4 C 76 % 1000,7 hPa 0,0 l/m 0 min 0 min 0 W/m 16,1 km/h (3 Bft) 97,87 %
29.04.2021 05:24 11,4 C 10,6 C 8,4 C 76 % 1000,7 hPa 0,0 l/m 0 min 0 min 0 W/m 16,1 km/h (3 Bft) 53,33 %
29.04.2021 05:26 11,4 C 10,6 C 8,4 C 76 % 1000,7 hPa 0,0 l/m 0 min 0 min 0 W/m 22,5 km/h (4 Bft) 97,87 %
29.04.2021 05:28 11,4 C 10,6 C 8,4 C 76 % 1000,7 hPa 0,0 l/m 0 min 0 min 0 W/m 16,1 km/h (3 Bft) 97,87 %
29.04.2021 05:30 11,4 C 10,6 C 8,4 C 76 % 1000,7 hPa 0,0 l/m 0 min 0 min 0 W/m 16,1 km/h (3 Bft) 95,65 %
29.04.2021 05:32 11,3 C 10,6 C 8,4 C 76 % 1000,7 hPa 0,0 l/m 0 min 0 min 0 W/m 19,3 km/h (3 Bft) 95,74 %
29.04.2021 05:34 11,3 C 10,6 C 8,4 C 76 % 1000,7 hPa 0,0 l/m 0 min 0 min 0 W/m 9,7 km/h (2 Bft) 97,87 %
29.04.2021 05:36 11,3 C 10,6 C 8,4 C 77 % 1000,7 hPa 0,0 l/m 0 min 0 min 0 W/m 12,9 km/h (3 Bft) 97,87 %
29.04.2021 05:38 11,3 C 10,6 C 8,4 C 77 % 1000,7 hPa 0,0 l/m 0 min 0 min 0 W/m 16,1 km/h (3 Bft) 97,87 %
29.04.2021 05:40 11,3 C 10,6 C 8,4 C 77 % 1000,7 hPa 0,0 l/m 0 min 0 min 0 W/m 12,9 km/h (3 Bft) 95,74 %
29.04.2021 05:42 11,3 C 10,6 C 8,4 C 77 % 1000,7 hPa 0,0 l/m 0 min 0 min 0 W/m 19,3 km/h (3 Bft) 97,83 %
29.04.2021 05:44 11,2 C 10,6 C 8,4 C 77 % 1000,8 hPa 0,0 l/m 0 min 0 min 0 W/m 22,5 km/h (4 Bft) 95,74 %
29.04.2021 05:46 11,1 C 10,6 C 8,4 C 77 % 1000,8 hPa 0,0 l/m 0 min 0 min 0 W/m 12,9 km/h (3 Bft) 97,87 %
29.04.2021 05:48 11,1 C 10,6 C 8,4 C 77 % 1000,8 hPa 0,0 l/m 0 min 0 min 0 W/m 22,5 km/h (4 Bft) 97,87 %
29.04.2021 05:50 11,0 C 10,6 C 7,8 C 76 % 1000,8 hPa 0,0 l/m 0 min 0 min 0 W/m 19,3 km/h (3 Bft) 100,00 %
29.04.2021 05:52 11,0 C 10,6 C 7,8 C 76 % 1000,8 hPa 0,0 l/m 0 min 0 min 0 W/m 12,9 km/h (3 Bft) 100,00 %
29.04.2021 05:54 11,0 C 10,0 C 7,8 C 76 % 1000,9 hPa 0,0 l/m 0 min 0 min 0 W/m 12,9 km/h (3 Bft) 97,83 %
29.04.2021 05:56 10,9 C 10,0 C 7,8 C 75 % 1000,9 hPa 0,0 l/m 0 min 0 min 0 W/m 16,1 km/h (3 Bft) 95,74 %
29.04.2021 05:58 10,9 C 10,0 C 7,8 C 75 % 1000,9 hPa 0,0 l/m 0 min 0 min 0 W/m 16,1 km/h (3 Bft) 100,00 %
29.04.2021 06:00 10,9 C 10,0 C 7,8 C 74 % 1000,9 hPa 0,0 l/m 0 min 0 min 0 W/m 12,9 km/h (3 Bft) 100,00 %
29.04.2021 06:02 10,9 C 10,0 C 7,8 C 73 % 1000,9 hPa 0,0 l/m 0 min 0 min 0 W/m 12,9 km/h (3 Bft) 100,00 %
29.04.2021 06:04 10,8 C 10,0 C 7,8 C 73 % 1001,0 hPa 0,0 l/m 0 min 0 min 0 W/m 12,9 km/h (3 Bft) 97,87 %
29.04.2021 06:08 10,8 C 10,0 C 7,8 C 71 % 1000,9 hPa 0,0 l/m 0 min 0 min 0 W/m 16,1 km/h (3 Bft) 97,85 %
29.04.2021 06:10 10,7 C 10,0 C 7,8 C 71 % 1000,9 hPa 0,0 l/m 0 min 0 min 0 W/m 9,7 km/h (2 Bft) 97,87 %
29.04.2021 06:12 10,7 C 10,0 C 7,8 C 71 % 1000,9 hPa 0,0 l/m 0 min 0 min 0 W/m 6,4 km/h (2 Bft) 97,87 %
29.04.2021 06:14 10,7 C 10,0 C 7,8 C 71 % 1001,0 hPa 0,0 l/m 0 min 0 min 0 W/m 6,4 km/h (2 Bft) 97,87 %
29.04.2021 06:16 10,6 C 10,0 C 7,8 C 70 % 1001,0 hPa 0,0 l/m 0 min 0 min 0 W/m 12,9 km/h (3 Bft) 97,87 %
29.04.2021 06:18 10,6 C 10,0 C 7,8 C 70 % 1001,1 hPa 0,0 l/m 0 min 0 min 0 W/m 9,7 km/h (2 Bft) 95,65 %
29.04.2021 06:20 10,6 C 10,0 C 7,8 C 70 % 1001,1 hPa 0,0 l/m 0 min 0 min 0 W/m 9,7 km/h (2 Bft) 97,87 %
29.04.2021 06:22 10,5 C 10,0 C 7,8 C 70 % 1001,1 hPa 0,0 l/m 0 min 0 min 0 W/m 9,7 km/h (2 Bft) 97,87 %
29.04.2021 06:24 10,5 C 10,0 C 7,3 C 70 % 1001,1 hPa 0,0 l/m 0 min 0 min 0 W/m 16,1 km/h (3 Bft) 97,87 %
29.04.2021 06:26 10,5 C 10,0 C 7,3 C 70 % 1001,2 hPa 0,0 l/m 0 min 0 min 0 W/m 6,4 km/h (2 Bft) 95,74 %
29.04.2021 06:28 10,5 C 10,0 C 7,3 C 70 % 1001,2 hPa 0,0 l/m 0 min 0 min 0 W/m 12,9 km/h (3 Bft) 95,74 %
29.04.2021 06:30 10,4 C 10,0 C 7,3 C 70 % 1001,2 hPa 0,0 l/m 0 min 0 min 0 W/m 9,7 km/h (2 Bft) 97,83 %
29.04.2021 06:32 10,4 C 10,0 C 7,3 C 70 % 1001,2 hPa 0,0 l/m 0 min 0 min 0 W/m 19,3 km/h (3 Bft) 97,87 %
29.04.2021 06:34 10,4 C 10,0 C 7,3 C 71 % 1001,2 hPa 0,0 l/m 0 min 0 min 0 W/m 3,2 km/h (1 Bft) 97,87 %
29.04.2021 06:36 10,4 C 10,0 C 7,3 C 71 % 1001,2 hPa 0,0 l/m 0 min 0 min 4 W/m 19,3 km/h (3 Bft) 95,74 %
29.04.2021 06:38 10,4 C 10,0 C 7,3 C 71 % 1001,2 hPa 0,0 l/m 0 min 0 min 5 W/m 19,3 km/h (3 Bft) 93,62 %
29.04.2021 06:40 10,4 C 10,0 C 7,3 C 71 % 1001,3 hPa 0,0 l/m 0 min 0 min 5 W/m 9,7 km/h (2 Bft) 95,74 %
29.04.2021 06:42 10,4 C 9,4 C 7,3 C 71 % 1001,4 hPa 0,0 l/m 0 min 0 min 7 W/m 12,9 km/h (3 Bft) 93,48 %
29.04.2021 06:44 10,4 C 9,4 C 7,3 C 71 % 1001,4 hPa 0,0 l/m 0 min 0 min 7 W/m 6,4 km/h (2 Bft) 93,62 %
29.04.2021 06:46 10,3 C 9,4 C 7,3 C 72 % 1001,4 hPa 0,0 l/m 0 min 0 min 9 W/m 9,7 km/h (2 Bft) 95,74 %
29.04.2021 06:48 10,3 C 9,4 C 7,3 C 72 % 1001,4 hPa 0,0 l/m 0 min 0 min 9 W/m 6,4 km/h (2 Bft) 97,87 %
29.04.2021 06:50 10,3 C 9,4 C 7,3 C 73 % 1001,4 hPa 0,0 l/m 0 min 0 min 9 W/m 6,4 km/h (2 Bft) 97,87 %
29.04.2021 06:52 10,3 C 9,4 C 7,3 C 73 % 1001,5 hPa 0,0 l/m 0 min 0 min 11 W/m 16,1 km/h (3 Bft) 97,83 %
29.04.2021 06:54 10,3 C 9,4 C 7,3 C 74 % 1001,5 hPa 0,0 l/m 0 min 0 min 11 W/m 12,9 km/h (3 Bft) 97,87 %
29.04.2021 06:56 10,3 C 9,4 C 7,3 C 74 % 1001,5 hPa 0,0 l/m 0 min 0 min 11 W/m 6,4 km/h (2 Bft) 89,36 %
29.04.2021 06:58 10,3 C 9,4 C 7,3 C 75 % 1001,6 hPa 0,0 l/m 0 min 0 min 12 W/m 3,2 km/h (1 Bft) 87,23 %
29.04.2021 07:00 10,3 C 9,4 C 7,3 C 75 % 1001,6 hPa 0,0 l/m 0 min 0 min 13 W/m 6,4 km/h (2 Bft) 89,36 %
29.04.2021 07:02 10,3 C 9,4 C 7,3 C 75 % 1001,6 hPa 0,0 l/m 0 min 0 min 15 W/m 12,9 km/h (3 Bft) 97,87 %
29.04.2021 07:04 10,3 C 9,4 C 7,3 C 76 % 1001,6 hPa 0,0 l/m 0 min 0 min 18 W/m 12,9 km/h (3 Bft) 97,83 %
29.04.2021 07:06 10,3 C 9,4 C 7,3 C 76 % 1001,6 hPa 0,0 l/m 0 min 0 min 22 W/m 16,1 km/h (3 Bft) 95,74 %
29.04.2021 07:08 10,2 C 9,4 C 7,3 C 77 % 1001,6 hPa 0,0 l/m 0 min 0 min 26 W/m 19,3 km/h (3 Bft) 95,74 %
29.04.2021 07:10 10,2 C 9,4 C 7,3 C 77 % 1001,7 hPa 0,0 l/m 0 min 0 min 30 W/m 12,9 km/h (3 Bft) 97,87 %
29.04.2021 07:12 10,1 C 9,4 C 7,3 C 77 % 1001,7 hPa 0,0 l/m 0 min 0 min 34 W/m 16,1 km/h (3 Bft) 91,49 %
29.04.2021 07:14 10,1 C 9,4 C 7,3 C 78 % 1001,8 hPa 0,0 l/m 0 min 0 min 36 W/m 19,3 km/h (3 Bft) 93,62 %
29.04.2021 07:16 10,1 C 9,4 C 7,3 C 78 % 1001,7 hPa 0,0 l/m 0 min 0 min 38 W/m 22,5 km/h (4 Bft) 97,83 %
29.04.2021 07:18 10,1 C 9,4 C 7,3 C 78 % 1001,7 hPa 0,0 l/m 0 min 0 min 40 W/m 12,9 km/h (3 Bft) 95,74 %
29.04.2021 07:20 10,1 C 9,4 C 7,3 C 78 % 1001,8 hPa 0,0 l/m 0 min 0 min 40 W/m 12,9 km/h (3 Bft) 95,74 %
29.04.2021 07:22 10,1 C 9,4 C 7,3 C 78 % 1001,7 hPa 0,0 l/m 0 min 0 min 42 W/m 25,7 km/h (4 Bft) 93,62 %
29.04.2021 07:24 10,1 C 9,4 C 7,3 C 79 % 1001,8 hPa 0,0 l/m 0 min 0 min 46 W/m 12,9 km/h (3 Bft) 95,74 %
29.04.2021 07:26 10,1 C 10,0 C 7,3 C 79 % 1001,7 hPa 0,0 l/m 0 min 0 min 51 W/m 6,4 km/h (2 Bft) 97,87 %
29.04.2021 07:28 10,1 C 10,0 C 7,3 C 79 % 1001,7 hPa 0,0 l/m 0 min 0 min 56 W/m 9,7 km/h (2 Bft) 100,00 %
29.04.2021 07:30 10,1 C 10,0 C 7,3 C 79 % 1001,8 hPa 0,0 l/m 0 min 0 min 61 W/m 12,9 km/h (3 Bft) 100,00 %
29.04.2021 07:32 10,1 C 10,0 C 7,3 C 79 % 1001,8 hPa 0,0 l/m 0 min 0 min 63 W/m 12,9 km/h (3 Bft) 100,00 %
29.04.2021 07:34 10,2 C 10,0 C 7,8 C 78 % 1001,8 hPa 0,0 l/m 0 min 0 min 67 W/m 6,4 km/h (2 Bft) 97,87 %
29.04.2021 07:36 10,2 C 10,0 C 7,8 C 78 % 1001,7 hPa 0,0 l/m 0 min 0 min 74 W/m 16,1 km/h (3 Bft) 93,62 %
29.04.2021 07:38 10,2 C 10,0 C 7,8 C 78 % 1001,8 hPa 0,0 l/m 0 min 0 min 80 W/m 12,9 km/h (3 Bft) 100,00 %
29.04.2021 07:40 10,2 C 10,0 C 7,8 C 78 % 1001,8 hPa 0,0 l/m 0 min 0 min 84 W/m 12,9 km/h (3 Bft) 100,00 %
29.04.2021 07:42 10,2 C 10,0 C 7,8 C 78 % 1001,8 hPa 0,0 l/m 0 min 0 min 83 W/m 22,5 km/h (4 Bft) 100,00 %
29.04.2021 07:44 10,2 C 10,0 C 7,8 C 78 % 1001,8 hPa 0,0 l/m 0 min 0 min 80 W/m 16,1 km/h (3 Bft) 100,00 %
29.04.2021 07:46 10,1 C 10,0 C 7,8 C 77 % 1001,8 hPa 0,0 l/m 0 min 0 min 82 W/m 12,9 km/h (3 Bft) 100,00 %
29.04.2021 07:48 10,1 C 10,0 C 7,8 C 77 % 1001,8 hPa 0,0 l/m 0 min 0 min 82 W/m 19,3 km/h (3 Bft) 100,00 %
29.04.2021 07:50 10,2 C 10,0 C 7,8 C 77 % 1001,9 hPa 0,0 l/m 0 min 0 min 77 W/m 6,4 km/h (2 Bft) 100,00 %
29.04.2021 07:52 10,2 C 10,0 C 7,8 C 77 % 1001,9 hPa 0,0 l/m 0 min 0 min 71 W/m 12,9 km/h (3 Bft) 95,83 %
29.04.2021 07:54 10,2 C 10,0 C 7,8 C 76 % 1002,0 hPa 0,0 l/m 0 min 0 min 68 W/m 16,1 km/h (3 Bft) 100,00 %
29.04.2021 07:56 10,1 C 10,0 C 7,3 C 75 % 1001,9 hPa 0,0 l/m 0 min 0 min 67 W/m 19,3 km/h (3 Bft) 100,00 %
29.04.2021 07:58 10,1 C 10,0 C 7,3 C 75 % 1002,0 hPa 0,0 l/m 0 min 0 min 67 W/m 12,9 km/h (3 Bft) 100,00 %
29.04.2021 08:00 10,1 C 10,0 C 7,3 C 75 % 1002,0 hPa 0,0 l/m 0 min 0 min 67 W/m 16,1 km/h (3 Bft) 100,00 %
29.04.2021 08:02 10,1 C 10,0 C 7,3 C 75 % 1002,0 hPa 0,0 l/m 0 min 0 min 68 W/m 9,7 km/h (2 Bft) 100,00 %
29.04.2021 08:04 10,1 C 10,0 C 7,3 C 75 % 1002,0 hPa 0,0 l/m 0 min 0 min 69 W/m 16,1 km/h (3 Bft) 100,00 %
29.04.2021 08:06 10,1 C 10,0 C 7,3 C 75 % 1002,0 hPa 0,0 l/m 0 min 0 min 70 W/m 12,9 km/h (3 Bft) 100,00 %
29.04.2021 08:08 10,1 C 10,0 C 7,3 C 75 % 1002,0 hPa 0,0 l/m 0 min 0 min 71 W/m 12,9 km/h (3 Bft) 100,00 %
29.04.2021 08:10 10,1 C 10,0 C 7,3 C 75 % 1002,0 hPa 0,0 l/m 0 min 0 min 72 W/m 16,1 km/h (3 Bft) 100,00 %
29.04.2021 08:12 10,2 C 10,0 C 7,3 C 75 % 1002,0 hPa 0,0 l/m 0 min 0 min 74 W/m 19,3 km/h (3 Bft) 100,00 %
29.04.2021 08:14 10,2 C 10,0 C 7,3 C 75 % 1002,1 hPa 0,0 l/m 0 min 0 min 76 W/m 16,1 km/h (3 Bft) 97,87 %
29.04.2021 08:16 10,2 C 10,0 C 7,3 C 74 % 1002,0 hPa 0,0 l/m 0 min 0 min 78 W/m 16,1 km/h (3 Bft) 100,00 %
29.04.2021 08:18 10,2 C 10,0 C 7,8 C 74 % 1002,0 hPa 0,0 l/m 0 min 0 min 79 W/m 12,9 km/h (3 Bft) 100,00 %
29.04.2021 08:20 10,2 C 10,0 C 7,8 C 74 % 1002,0 hPa 0,0 l/m 0 min 0 min 82 W/m 19,3 km/h (3 Bft) 97,87 %
29.04.2021 08:22 10,1 C 10,0 C 7,3 C 73 % 1002,0 hPa 0,0 l/m 0 min 0 min 105 W/m 19,3 km/h (3 Bft) 100,00 %
29.04.2021 08:24 10,1 C 10,0 C 7,8 C 74 % 1002,0 hPa 0,0 l/m 0 min 0 min 91 W/m 6,4 km/h (2 Bft) 100,00 %
29.04.2021 08:26 10,2 C 10,0 C 7,8 C 73 % 1002,0 hPa 0,0 l/m 0 min 0 min 107 W/m 16,1 km/h (3 Bft) 100,00 %
29.04.2021 08:28 10,2 C 10,0 C 7,8 C 73 % 1002,0 hPa 0,0 l/m 2 min 0 min 193 W/m 16,1 km/h (3 Bft) 100,00 %
29.04.2021 08:30 10,2 C 10,0 C 7,8 C 73 % 1002,0 hPa 0,0 l/m 0 min 0 min 104 W/m 25,7 km/h (4 Bft) 100,00 %
29.04.2021 08:32 10,2 C 10,0 C 7,8 C 72 % 1002,1 hPa 0,0 l/m 0 min 0 min 90 W/m 19,3 km/h (3 Bft) 97,83 %
29.04.2021 08:34 10,2 C 10,0 C 7,8 C 72 % 1002,1 hPa 0,0 l/m 0 min 0 min 91 W/m 16,1 km/h (3 Bft) 100,00 %
29.04.2021 08:36 10,3 C 10,0 C 7,8 C 72 % 1002,1 hPa 0,0 l/m 0 min 0 min 95 W/m 16,1 km/h (3 Bft) 100,00 %
29.04.2021 08:38 10,3 C 10,0 C 7,8 C 72 % 1002,1 hPa 0,0 l/m 0 min 0 min 176 W/m 19,3 km/h (3 Bft) 100,00 %
29.04.2021 08:40 10,3 C 10,6 C 7,8 C 72 % 1002,1 hPa 0,0 l/m 2 min 0 min 289 W/m 25,7 km/h (4 Bft) 100,00 %
29.04.2021 08:42 10,4 C 10,6 C 7,8 C 72 % 1002,2 hPa 0,0 l/m 2 min 0 min 299 W/m 16,1 km/h (3 Bft) 97,87 %
29.04.2021 08:44 10,4 C 11,1 C 7,8 C 72 % 1002,2 hPa 0,0 l/m 2 min 0 min 307 W/m 25,7 km/h (4 Bft) 100,00 %
29.04.2021 08:46 10,4 C 11,7 C 7,8 C 72 % 1002,3 hPa 0,0 l/m 2 min 0 min 309 W/m 19,3 km/h (3 Bft) 100,00 %
29.04.2021 08:48 10,5 C 12,8 C 7,8 C 72 % 1002,2 hPa 0,0 l/m 2 min 0 min 315 W/m 16,1 km/h (3 Bft) 95,74 %
29.04.2021 08:50 10,5 C 12,8 C 7,8 C 72 % 1002,3 hPa 0,0 l/m 2 min 0 min 325 W/m 9,7 km/h (2 Bft) 93,62 %
29.04.2021 08:52 10,6 C 13,9 C 7,8 C 72 % 1002,3 hPa 0,0 l/m 2 min 0 min 333 W/m 25,7 km/h (4 Bft) 95,74 %
29.04.2021 08:54 10,6 C 13,3 C 8,4 C 72 % 1002,3 hPa 0,0 l/m 2 min 0 min 338 W/m 25,7 km/h (4 Bft) 95,74 %
29.04.2021 08:56 10,8 C 13,9 C 8,4 C 72 % 1002,3 hPa 0,0 l/m 2 min 0 min 341 W/m 19,3 km/h (3 Bft) 93,48 %
29.04.2021 08:58 10,8 C 13,9 C 8,4 C 71 % 1002,3 hPa 0,0 l/m 2 min 0 min 350 W/m 16,1 km/h (3 Bft) 93,62 %
29.04.2021 09:00 10,9 C 13,9 C 8,9 C 72 % 1002,4 hPa 0,0 l/m 2 min 0 min 351 W/m 16,1 km/h (3 Bft) 95,74 %
29.04.2021 09:02 11,0 C 14,4 C 8,9 C 72 % 1002,3 hPa 0,0 l/m 2 min 0 min 358 W/m 25,7 km/h (4 Bft) 93,62 %
29.04.2021 09:04 11,0 C 14,4 C 9,5 C 72 % 1002,4 hPa 0,0 l/m 2 min 0 min 364 W/m 22,5 km/h (4 Bft) 95,74 %
29.04.2021 09:06 11,0 C 13,9 C 10,0 C 72 % 1002,4 hPa 0,0 l/m 2 min 0 min 376 W/m 25,7 km/h (4 Bft) 95,65 %
29.04.2021 09:08 11,0 C 13,9 C 10,6 C 72 % 1002,4 hPa 0,0 l/m 2 min 0 min 382 W/m 29,0 km/h (5 Bft) 95,74 %
29.04.2021 09:10 11,1 C 13,9 C 10,6 C 72 % 1002,4 hPa 0,0 l/m 2 min 0 min 385 W/m 19,3 km/h (3 Bft) 95,74 %
29.04.2021 09:12 11,1 C 13,9 C 11,1 C 72 % 1002,4 hPa 0,0 l/m 2 min 0 min 382 W/m 19,3 km/h (3 Bft) 93,62 %
29.04.2021 09:14 11,3 C 14,4 C 11,1 C 73 % 1002,4 hPa 0,0 l/m 2 min 0 min 389 W/m 19,3 km/h (3 Bft) 95,74 %
29.04.2021 09:16 11,4 C 15,0 C 11,7 C 73 % 1002,4 hPa 0,0 l/m 2 min 0 min 397 W/m 25,7 km/h (4 Bft) 95,74 %
29.04.2021 09:18 11,5 C 14,4 C 11,7 C 72 % 1002,5 hPa 0,0 l/m 2 min 0 min 394 W/m 19,3 km/h (3 Bft) 95,65 %
29.04.2021 09:20 11,5 C 14,4 C 12,3 C 73 % 1002,5 hPa 0,0 l/m 2 min 0 min 394 W/m 19,3 km/h (3 Bft) 95,74 %
29.04.2021 09:22 11,5 C 14,4 C 12,3 C 74 % 1002,4 hPa 0,0 l/m 2 min 0 min 393 W/m 12,9 km/h (3 Bft) 95,74 %
29.04.2021 09:24 11,6 C 14,4 C 12,8 C 74 % 1002,4 hPa 0,0 l/m 2 min 0 min 397 W/m 16,1 km/h (3 Bft) 93,62 %
29.04.2021 09:26 11,7 C 14,4 C 12,8 C 74 % 1002,4 hPa 0,0 l/m 2 min 0 min 403 W/m 19,3 km/h (3 Bft) 91,49 %
29.04.2021 09:28 11,7 C 15,0 C 12,8 C 75 % 1002,4 hPa 0,0 l/m 2 min 0 min 423 W/m 9,7 km/h (2 Bft) 91,49 %
29.04.2021 09:30 11,8 C 14,4 C 12,8 C 75 % 1002,5 hPa 0,0 l/m 2 min 0 min 399 W/m 29,0 km/h (5 Bft) 91,30 %
29.04.2021 09:32 11,8 C 15,0 C 13,4 C 76 % 1002,5 hPa 0,0 l/m 2 min 0 min 431 W/m 16,1 km/h (3 Bft) 93,62 %
29.04.2021 09:34 11,7 C 14,4 C 12,8 C 76 % 1002,5 hPa 0,0 l/m 2 min 0 min 458 W/m 35,4 km/h (5 Bft) 93,62 %
29.04.2021 09:36 11,6 C 13,9 C 12,3 C 76 % 1002,6 hPa 0,0 l/m 2 min 0 min 449 W/m 41,8 km/h (6 Bft) 93,62 %
29.04.2021 09:38 11,6 C 13,9 C 12,3 C 76 % 1002,6 hPa 0,0 l/m 2 min 0 min 477 W/m 41,8 km/h (6 Bft) 93,62 %
29.04.2021 09:40 11,6 C 13,3 C 12,3 C 76 % 1002,6 hPa 0,0 l/m 2 min 0 min 483 W/m 45,1 km/h (6 Bft) 93,62 %
29.04.2021 09:42 11,5 C 12,8 C 11,7 C 76 % 1002,6 hPa 0,0 l/m 2 min 0 min 384 W/m 38,6 km/h (5 Bft) 93,48 %
29.04.2021 09:44 11,3 C 12,2 C 10,6 C 76 % 1002,6 hPa 0,0 l/m 0 min 0 min 195 W/m 38,6 km/h (5 Bft) 91,49 %
29.04.2021 09:46 11,3 C 11,7 C 10,0 C 76 % 1002,7 hPa 0,0 l/m 0 min 0 min 211 W/m 32,2 km/h (5 Bft) 93,62 %
29.04.2021 09:48 11,1 C 11,7 C 10,0 C 77 % 1002,7 hPa 0,0 l/m 2 min 0 min 261 W/m 45,1 km/h (6 Bft) 93,62 %
29.04.2021 09:50 11,0 C 11,7 C 9,5 C 77 % 1002,7 hPa 0,0 l/m 0 min 0 min 222 W/m 38,6 km/h (5 Bft) 95,74 %
29.04.2021 09:52 11,0 C 11,7 C 9,5 C 78 % 1002,7 hPa 0,0 l/m 0 min 0 min 245 W/m 29,0 km/h (5 Bft) 95,74 %
29.04.2021 09:54 11,1 C 11,7 C 9,5 C 77 % 1002,7 hPa 0,0 l/m 0 min 0 min 253 W/m 35,4 km/h (5 Bft) 95,65 %
29.04.2021 09:56 11,1 C 11,7 C 9,5 C 78 % 1002,7 hPa 0,0 l/m 0 min 0 min 256 W/m 19,3 km/h (3 Bft) 93,62 %
29.04.2021 09:58 11,2 C 12,2 C 10,0 C 78 % 1002,8 hPa 0,0 l/m 0 min 0 min 255 W/m 29,0 km/h (5 Bft) 91,49 %
29.04.2021 10:00 11,3 C 12,2 C 10,6 C 78 % 1002,7 hPa 0,0 l/m 2 min 0 min 342 W/m 32,2 km/h (5 Bft) 93,62 %
29.04.2021 10:02 11,4 C 13,3 C 10,6 C 77 % 1002,7 hPa 0,0 l/m 2 min 0 min 313 W/m 19,3 km/h (3 Bft) 95,74 %
29.04.2021 10:04 11,7 C 14,4 C 11,1 C 77 % 1002,7 hPa 0,0 l/m 2 min 0 min 320 W/m 12,9 km/h (3 Bft) 91,49 %
29.04.2021 10:06 11,9 C 13,9 C 11,7 C 76 % 1002,7 hPa 0,0 l/m 0 min 0 min 277 W/m 29,0 km/h (5 Bft) 93,48 %
29.04.2021 10:08 11,9 C 13,9 C 11,7 C 76 % 1002,7 hPa 0,0 l/m 2 min 0 min 344 W/m 32,2 km/h (5 Bft) 97,87 %
29.04.2021 10:10 11,9 C 14,4 C 11,7 C 75 % 1002,7 hPa 0,0 l/m 2 min 0 min 370 W/m 41,8 km/h (6 Bft) 95,74 %
29.04.2021 10:12 12,0 C 14,4 C 11,7 C 75 % 1002,8 hPa 0,0 l/m 2 min 0 min 467 W/m 45,1 km/h (6 Bft) 97,87 %
29.04.2021 10:14 12,0 C 13,9 C 11,7 C 75 % 1002,8 hPa 0,0 l/m 2 min 0 min 383 W/m 32,2 km/h (5 Bft) 97,87 %
29.04.2021 10:16 11,9 C 13,3 C 11,1 C 74 % 1002,8 hPa 0,0 l/m 2 min 0 min 366 W/m 41,8 km/h (6 Bft) 97,87 %
29.04.2021 10:18 11,8 C 12,8 C 11,7 C 75 % 1002,8 hPa 0,0 l/m 2 min 0 min 366 W/m 48,3 km/h (6 Bft) 100,00 %
29.04.2021 10:20 11,7 C 12,8 C 11,7 C 75 % 1002,8 hPa 0,0 l/m 2 min 0 min 352 W/m 35,4 km/h (5 Bft) 97,87 %
29.04.2021 10:22 11,8 C 13,3 C 12,3 C 74 % 1002,8 hPa 0,0 l/m 0 min 0 min 255 W/m 32,2 km/h (5 Bft) 100,00 %
29.04.2021 10:24 11,8 C 13,3 C 12,3 C 75 % 1002,9 hPa 0,0 l/m 0 min 0 min 255 W/m 32,2 km/h (5 Bft) 97,87 %
29.04.2021 10:26 11,8 C 13,3 C 11,7 C 75 % 1002,9 hPa 0,0 l/m 2 min 0 min 315 W/m 38,6 km/h (5 Bft) 100,00 %
29.04.2021 10:28 12,0 C 13,3 C 11,7 C 75 % 1002,8 hPa 0,0 l/m 0 min 0 min 240 W/m 22,5 km/h (4 Bft) 100,00 %
29.04.2021 10:30 12,0 C 13,3 C 11,7 C 74 % 1002,9 hPa 0,0 l/m 0 min 0 min 234 W/m 29,0 km/h (5 Bft) 100,00 %
29.04.2021 10:32 12,1 C 13,3 C 12,3 C 74 % 1003,0 hPa 0,0 l/m 2 min 0 min 543 W/m 19,3 km/h (3 Bft) 100,00 %
29.04.2021 10:34 12,1 C 13,3 C 12,8 C 74 % 1003,0 hPa 0,0 l/m 2 min 0 min 543 W/m 29,0 km/h (5 Bft) 100,00 %
29.04.2021 10:36 12,2 C 13,3 C 12,8 C 73 % 1003,0 hPa 0,0 l/m 2 min 0 min 491 W/m 22,5 km/h (4 Bft) 100,00 %
29.04.2021 10:38 12,1 C 12,8 C 12,3 C 72 % 1003,0 hPa 0,0 l/m 2 min 0 min 397 W/m 67,6 km/h (8 Bft) 100,00 %
29.04.2021 10:40 12,0 C 12,8 C 12,3 C 72 % 1003,0 hPa 0,0 l/m 0 min 0 min 272 W/m 38,6 km/h (5 Bft) 100,00 %
29.04.2021 10:42 12,1 C 13,3 C 11,7 C 73 % 1003,1 hPa 0,0 l/m 2 min 0 min 330 W/m 29,0 km/h (5 Bft) 100,00 %
29.04.2021 10:44 12,1 C 12,8 C 11,7 C 72 % 1003,1 hPa 0,0 l/m 2 min 0 min 351 W/m 32,2 km/h (5 Bft) 100,00 %
29.04.2021 10:46 12,1 C 12,8 C 11,1 C 72 % 1003,1 hPa 0,0 l/m 0 min 0 min 259 W/m 32,2 km/h (5 Bft) 100,00 %
29.04.2021 10:48 12,1 C 12,8 C 10,6 C 72 % 1003,2 hPa 0,0 l/m 0 min 0 min 217 W/m 19,3 km/h (3 Bft) 100,00 %
29.04.2021 10:50 12,0 C 12,8 C 11,7 C 71 % 1003,1 hPa 0,0 l/m 0 min 0 min 248 W/m 35,4 km/h (5 Bft) 100,00 %
29.04.2021 10:52 12,0 C 12,8 C 12,8 C 72 % 1003,1 hPa 0,0 l/m 2 min 0 min 614 W/m 25,7 km/h (4 Bft) 100,00 %
29.04.2021 10:55 12,3 C 13,3 C 13,4 C 72 % 1003,2 hPa 0,0 l/m 3 min 0 min 726 W/m 25,7 km/h (4 Bft) 100,00 %
29.04.2021 11:00 12,5 C 13,9 C 12,8 C 72 % 1003,3 hPa 0,0 l/m 5 min 0 min 585 W/m 12,9 km/h (3 Bft) 100,00 %
29.04.2021 11:02 12,7 C 14,4 C 12,8 C 71 % 1003,3 hPa 0,0 l/m 2 min 0 min 723 W/m 19,3 km/h (3 Bft) 100,00 %
29.04.2021 11:04 12,9 C 14,4 C 12,8 C 70 % 1003,3 hPa 0,0 l/m 2 min 0 min 828 W/m 19,3 km/h (3 Bft) 100,00 %
29.04.2021 11:06 13,0 C 14,4 C 12,8 C 70 % 1003,4 hPa 0,0 l/m 2 min 0 min 828 W/m 22,5 km/h (4 Bft) 100,00 %
29.04.2021 11:08 13,0 C 13,9 C 12,3 C 68 % 1003,4 hPa 0,0 l/m 2 min 0 min 828 W/m 22,5 km/h (4 Bft) 100,00 %
29.04.2021 11:10 12,8 C 13,9 C 11,7 C 68 % 1003,4 hPa 0,0 l/m 0 min 0 min 271 W/m 25,7 km/h (4 Bft) 100,00 %
29.04.2021 11:15 12,6 C 13,9 C 11,7 C 69 % 1003,3 hPa 0,0 l/m 5 min 0 min 663 W/m 32,2 km/h (5 Bft) 100,00 %
29.04.2021 11:20 12,9 C 14,4 C 12,3 C 69 % 1003,4 hPa 0,0 l/m 5 min 0 min 657 W/m 32,2 km/h (5 Bft) 100,00 %
29.04.2021 11:24 13,0 C 14,4 C 12,3 C 68 % 1003,4 hPa 0,0 l/m 0 min 0 min 277 W/m 22,5 km/h (4 Bft) 100,00 %
29.04.2021 11:26 13,1 C 15,0 C 13,4 C 68 % 1003,4 hPa 0,0 l/m 2 min 0 min 656 W/m 19,3 km/h (3 Bft) 100,00 %
29.04.2021 11:28 13,4 C 15,6 C 13,9 C 68 % 1003,4 hPa 0,0 l/m 2 min 0 min 811 W/m 35,4 km/h (5 Bft) 100,00 %
29.04.2021 11:30 13,4 C 15,0 C 13,4 C 67 % 1003,4 hPa 0,0 l/m 2 min 0 min 575 W/m 25,7 km/h (4 Bft) 100,00 %
29.04.2021 11:32 13,4 C 15,6 C 13,9 C 67 % 1003,3 hPa 0,0 l/m 2 min 0 min 582 W/m 16,1 km/h (3 Bft) 100,00 %
29.04.2021 11:34 13,5 C 15,6 C 13,9 C 66 % 1003,3 hPa 0,0 l/m 2 min 0 min 873 W/m 38,6 km/h (5 Bft) 100,00 %
29.04.2021 11:36 13,3 C 15,0 C 13,9 C 66 % 1003,3 hPa 0,0 l/m 2 min 0 min 923 W/m 32,2 km/h (5 Bft) 100,00 %
29.04.2021 11:38 13,3 C 15,0 C 13,4 C 66 % 1003,3 hPa 0,0 l/m 2 min 0 min 547 W/m 16,1 km/h (3 Bft) 100,00 %
29.04.2021 11:40 13,4 C 14,4 C 12,8 C 66 % 1003,3 hPa 0,0 l/m 2 min 0 min 418 W/m 25,7 km/h (4 Bft) 100,00 %
29.04.2021 11:42 13,3 C 14,4 C 12,8 C 66 % 1003,4 hPa 0,0 l/m 2 min 0 min 404 W/m 38,6 km/h (5 Bft) 100,00 %
29.04.2021 11:44 13,4 C 15,0 C 13,4 C 67 % 1003,6 hPa 0,0 l/m 2 min 0 min 404 W/m 25,7 km/h (4 Bft) 100,00 %
29.04.2021 11:46 13,5 C 15,0 C 13,9 C 66 % 1003,4 hPa 0,0 l/m 2 min 0 min 627 W/m 29,0 km/h (5 Bft) 100,00 %
29.04.2021 11:48 13,6 C 15,0 C 13,9 C 66 % 1003,4 hPa 0,0 l/m 2 min 0 min 806 W/m 22,5 km/h (4 Bft) 100,00 %
29.04.2021 11:50 13,6 C 14,4 C 13,4 C 65 % 1003,4 hPa 0,0 l/m 0 min 0 min 272 W/m 29,0 km/h (5 Bft) 97,83 %
29.04.2021 11:52 13,5 C 14,4 C 12,8 C 65 % 1003,4 hPa 0,0 l/m 0 min 0 min 257 W/m 25,7 km/h (4 Bft) 100,00 %
29.04.2021 11:54 13,4 C 14,4 C 12,8 C 65 % 1003,4 hPa 0,0 l/m 0 min 0 min 262 W/m 29,0 km/h (5 Bft) 100,00 %
29.04.2021 11:56 13,4 C 14,4 C 12,8 C 66 % 1003,4 hPa 0,0 l/m 0 min 0 min 273 W/m 12,9 km/h (3 Bft) 97,87 %
29.04.2021 11:58 13,5 C 15,0 C 14,5 C 66 % 1003,5 hPa 0,0 l/m 2 min 0 min 839 W/m 19,3 km/h (3 Bft) 100,00 %
29.04.2021 12:00 13,6 C 15,6 C 15,6 C 65 % 1003,5 hPa 0,0 l/m 2 min 0 min 943 W/m 35,4 km/h (5 Bft) 97,87 %
29.04.2021 12:02 13,8 C 15,6 C 15,6 C 64 % 1003,5 hPa 0,0 l/m 2 min 0 min 963 W/m 12,9 km/h (3 Bft) 97,14 %
29.04.2021 12:04 14,0 C 15,6 C 15,0 C 64 % 1003,5 hPa 0,0 l/m 0 min 0 min 337 W/m 22,5 km/h (4 Bft) 97,87 %
29.04.2021 12:08 13,5 C 14,4 C 12,8 C 64 % 1003,5 hPa 0,0 l/m 0 min 0 min 330 W/m 41,8 km/h (6 Bft) 96,77 %
29.04.2021 12:10 13,5 C 13,9 C 12,3 C 64 % 1003,5 hPa 0,0 l/m 0 min 0 min 213 W/m 29,0 km/h (5 Bft) 97,87 %
29.04.2021 12:12 13,5 C 13,9 C 11,7 C 65 % 1003,6 hPa 0,0 l/m 0 min 0 min 203 W/m 16,1 km/h (3 Bft) 93,62 %
29.04.2021 12:14 13,5 C 13,9 C 11,7 C 64 % 1003,6 hPa 0,0 l/m 0 min 0 min 172 W/m 12,9 km/h (3 Bft) 95,74 %
29.04.2021 12:16 13,4 C 13,9 C 11,1 C 64 % 1003,6 hPa 0,0 l/m 0 min 0 min 163 W/m 16,1 km/h (3 Bft) 95,74 %
29.04.2021 12:18 13,3 C 13,3 C 11,1 C 64 % 1003,6 hPa 0,0 l/m 0 min 0 min 214 W/m 25,7 km/h (4 Bft) 93,48 %
29.04.2021 12:20 13,1 C 13,3 C 11,1 C 65 % 1003,6 hPa 0,0 l/m 0 min 0 min 274 W/m 19,3 km/h (3 Bft) 93,62 %
29.04.2021 12:22 13,1 C 13,3 C 11,7 C 65 % 1003,6 hPa 0,0 l/m 0 min 0 min 285 W/m 16,1 km/h (3 Bft) 95,74 %
29.04.2021 12:24 13,1 C 13,9 C 13,4 C 65 % 1003,7 hPa 0,0 l/m 0 min 0 min 276 W/m 25,7 km/h (4 Bft) 95,74 %
29.04.2021 12:26 13,4 C 15,0 C 16,1 C 65 % 1003,7 hPa 0,0 l/m 2 min 0 min 747 W/m 16,1 km/h (3 Bft) 93,62 %
29.04.2021 12:28 13,7 C 16,1 C 18,4 C 65 % 1003,6 hPa 0,0 l/m 2 min 0 min 878 W/m 19,3 km/h (3 Bft) 93,48 %
29.04.2021 12:30 14,0 C 16,1 C 17,3 C 63 % 1003,6 hPa 0,0 l/m 2 min 0 min 812 W/m 25,7 km/h (4 Bft) 95,74 %
29.04.2021 12:32 13,9 C 16,1 C 18,4 C 63 % 1003,7 hPa 0,0 l/m 2 min 0 min 596 W/m 22,5 km/h (4 Bft) 93,62 %
29.04.2021 12:34 14,2 C 16,1 C 17,8 C 63 % 1003,6 hPa 0,0 l/m 2 min 0 min 998 W/m 19,3 km/h (3 Bft) 95,74 %
29.04.2021 12:36 14,2 C 16,1 C 16,7 C 63 % 1003,7 hPa 0,0 l/m 2 min 0 min 830 W/m 19,3 km/h (3 Bft) 95,74 %
29.04.2021 12:38 14,1 C 15,0 C 15,0 C 63 % 1003,7 hPa 0,0 l/m 0 min 0 min 239 W/m 12,9 km/h (3 Bft) 93,62 %
29.04.2021 12:40 13,8 C 14,4 C 13,9 C 62 % 1003,7 hPa 0,0 l/m 0 min 0 min 239 W/m 19,3 km/h (3 Bft) 95,65 %
29.04.2021 12:42 13,5 C 13,9 C 12,3 C 61 % 1003,7 hPa 0,0 l/m 0 min 0 min 192 W/m 25,7 km/h (4 Bft) 97,87 %
29.04.2021 12:44 13,3 C 13,3 C 11,7 C 62 % 1003,8 hPa 0,0 l/m 0 min 0 min 129 W/m 19,3 km/h (3 Bft) 97,87 %
29.04.2021 12:46 13,1 C 12,8 C 11,1 C 63 % 1003,8 hPa 0,0 l/m 0 min 0 min 151 W/m 41,8 km/h (6 Bft) 97,87 %
29.04.2021 12:48 12,8 C 12,8 C 11,1 C 63 % 1003,8 hPa 0,0 l/m 0 min 0 min 245 W/m 32,2 km/h (5 Bft) 95,74 %
29.04.2021 12:50 12,9 C 13,3 C 11,1 C 64 % 1003,7 hPa 0,0 l/m 0 min 0 min 341 W/m 19,3 km/h (3 Bft) 95,74 %
29.04.2021 12:52 13,0 C 13,9 C 11,7 C 63 % 1003,7 hPa 0,0 l/m 2 min 0 min 435 W/m 22,5 km/h (4 Bft) 97,83 %
29.04.2021 12:54 13,1 C 14,4 C 14,5 C 64 % 1003,8 hPa 0,0 l/m 2 min 0 min 574 W/m 16,1 km/h (3 Bft) 95,74 %
29.04.2021 12:56 13,4 C 15,6 C 17,3 C 63 % 1003,8 hPa 0,0 l/m 2 min 0 min 910 W/m 19,3 km/h (3 Bft) 97,87 %
29.04.2021 12:58 13,6 C 16,1 C 17,3 C 63 % 1003,7 hPa 0,0 l/m 2 min 0 min 886 W/m 22,5 km/h (4 Bft) 95,74 %
29.04.2021 13:00 13,6 C 15,0 C 15,6 C 62 % 1003,8 hPa 0,0 l/m 2 min 0 min 425 W/m 35,4 km/h (5 Bft) 97,87 %
29.04.2021 13:02 13,5 C 14,4 C 13,9 C 63 % 1003,8 hPa 0,0 l/m 0 min 0 min 139 W/m 29,0 km/h (5 Bft) 95,74 %
29.04.2021 13:04 13,4 C 13,3 C 12,8 C 64 % 1003,8 hPa 0,0 l/m 0 min 0 min 88 W/m 29,0 km/h (5 Bft) 97,83 %
29.04.2021 13:06 13,2 C 12,8 C 11,1 C 65 % 1003,9 hPa 0,0 l/m 0 min 0 min 80 W/m 22,5 km/h (4 Bft) 95,74 %
29.04.2021 13:08 12,9 C 12,2 C 10,6 C 66 % 1004,0 hPa 0,0 l/m 0 min 0 min 96 W/m 22,5 km/h (4 Bft) 97,87 %
29.04.2021 13:10 12,6 C 12,2 C 10,6 C 66 % 1004,1 hPa 0,0 l/m 0 min 0 min 132 W/m 29,0 km/h (5 Bft) 95,74 %
29.04.2021 13:12 12,4 C 12,2 C 10,0 C 65 % 1004,0 hPa 0,0 l/m 0 min 0 min 172 W/m 29,0 km/h (5 Bft) 97,87 %
29.04.2021 13:14 12,2 C 12,2 C 10,6 C 66 % 1004,1 hPa 0,0 l/m 0 min 0 min 231 W/m 19,3 km/h (3 Bft) 97,87 %
29.04.2021 13:16 12,4 C 13,9 C 12,8 C 67 % 1004,1 hPa 0,0 l/m 2 min 0 min 543 W/m 16,1 km/h (3 Bft) 97,83 %
29.04.2021 13:18 12,8 C 15,6 C 16,1 C 66 % 1004,1 hPa 0,0 l/m 2 min 0 min 805 W/m 12,9 km/h (3 Bft) 97,87 %
29.04.2021 13:20 13,1 C 15,6 C 16,7 C 65 % 1004,0 hPa 0,0 l/m 2 min 0 min 1018 W/m 19,3 km/h (3 Bft) 97,87 %
29.04.2021 13:22 13,3 C 15,0 C 15,6 C 64 % 1004,0 hPa 0,0 l/m 0 min 0 min 291 W/m 25,7 km/h (4 Bft) 95,74 %
29.04.2021 13:24 13,3 C 14,4 C 14,5 C 64 % 1004,0 hPa 0,0 l/m 0 min 0 min 250 W/m 29,0 km/h (5 Bft) 95,74 %
29.04.2021 13:26 13,3 C 14,4 C 13,4 C 64 % 1004,1 hPa 0,0 l/m 0 min 0 min 180 W/m 25,7 km/h (4 Bft) 95,74 %
29.04.2021 13:28 13,1 C 13,9 C 12,3 C 62 % 1004,1 hPa 0,0 l/m 0 min 0 min 184 W/m 35,4 km/h (5 Bft) 97,83 %
29.04.2021 13:30 12,9 C 13,3 C 12,3 C 63 % 1004,1 hPa 0,0 l/m 0 min 0 min 313 W/m 22,5 km/h (4 Bft) 95,74 %
29.04.2021 13:32 13,0 C 14,4 C 12,8 C 63 % 1004,1 hPa 0,0 l/m 0 min 0 min 336 W/m 19,3 km/h (3 Bft) 97,87 %
29.04.2021 13:34 13,2 C 14,4 C 12,8 C 62 % 1004,1 hPa 0,0 l/m 2 min 0 min 391 W/m 22,5 km/h (4 Bft) 97,87 %
29.04.2021 13:36 13,2 C 13,9 C 12,8 C 62 % 1004,1 hPa 0,0 l/m 0 min 0 min 325 W/m 25,7 km/h (4 Bft) 97,87 %
29.04.2021 13:38 13,1 C 13,3 C 11,7 C 62 % 1004,1 hPa 0,0 l/m 0 min 0 min 275 W/m 29,0 km/h (5 Bft) 97,87 %
29.04.2021 13:40 12,9 C 12,8 C 11,1 C 63 % 1004,2 hPa 0,0 l/m 0 min 0 min 231 W/m 25,7 km/h (4 Bft) 97,83 %
29.04.2021 13:42 12,6 C 12,8 C 10,6 C 65 % 1004,3 hPa 0,0 l/m 0 min 0 min 217 W/m 22,5 km/h (4 Bft) 95,74 %
29.04.2021 13:44 12,4 C 12,2 C 10,6 C 66 % 1004,4 hPa 0,0 l/m 0 min 0 min 248 W/m 22,5 km/h (4 Bft) 97,87 %
29.04.2021 13:46 12,3 C 12,2 C 10,6 C 67 % 1004,4 hPa 0,0 l/m 0 min 0 min 302 W/m 19,3 km/h (3 Bft) 97,87 %
29.04.2021 13:48 12,3 C 12,8 C 10,6 C 68 % 1004,5 hPa 0,0 l/m 0 min 0 min 293 W/m 25,7 km/h (4 Bft) 97,87 %
29.04.2021 13:50 12,2 C 12,8 C 10,6 C 68 % 1004,6 hPa 0,0 l/m 0 min 0 min 191 W/m 19,3 km/h (3 Bft) 97,87 %
29.04.2021 13:52 12,1 C 12,2 C 10,6 C 68 % 1004,6 hPa 0,0 l/m 0 min 0 min 231 W/m 25,7 km/h (4 Bft) 97,83 %
29.04.2021 13:54 11,9 C 12,2 C 10,0 C 68 % 1004,6 hPa 0,0 l/m 0 min 0 min 322 W/m 25,7 km/h (4 Bft) 97,87 %
29.04.2021 13:56 11,8 C 12,2 C 10,0 C 68 % 1004,6 hPa 0,0 l/m 0 min 0 min 374 W/m 25,7 km/h (4 Bft) 97,87 %
29.04.2021 13:58 11,7 C 12,2 C 10,0 C 68 % 1004,6 hPa 0,0 l/m 0 min 0 min 337 W/m 29,0 km/h (5 Bft) 97,87 %
29.04.2021 14:00 11,6 C 12,2 C 10,0 C 69 % 1004,7 hPa 0,0 l/m 0 min 0 min 376 W/m 22,5 km/h (4 Bft) 95,74 %
29.04.2021 14:02 11,6 C 12,2 C 10,0 C 70 % 1004,8 hPa 0,0 l/m 2 min 0 min 403 W/m 16,1 km/h (3 Bft) 97,87 %
29.04.2021 14:04 11,7 C 12,8 C 10,6 C 69 % 1004,7 hPa 0,0 l/m 2 min 0 min 431 W/m 22,5 km/h (4 Bft) 97,83 %
29.04.2021 14:06 11,9 C 13,3 C 10,6 C 69 % 1004,9 hPa 0,0 l/m 2 min 0 min 431 W/m 29,0 km/h (5 Bft) 97,87 %
29.04.2021 14:08 11,9 C 12,2 C 10,6 C 69 % 1005,0 hPa 0,0 l/m 0 min 0 min 311 W/m 32,2 km/h (5 Bft) 96,61 %
29.04.2021 14:10 11,6 C 11,7 C 9,5 C 69 % 1005,0 hPa 0,0 l/m 0 min 0 min 142 W/m 29,0 km/h (5 Bft) 100,00 %
29.04.2021 14:12 11,4 C 11,1 C 9,5 C 69 % 1005,0 hPa 0,0 l/m 0 min 0 min 120 W/m 25,7 km/h (4 Bft) 97,87 %
29.04.2021 14:14 11,3 C 11,1 C 8,9 C 70 % 1005,2 hPa 0,0 l/m 0 min 0 min 138 W/m 22,5 km/h (4 Bft) 97,83 %
29.04.2021 14:16 11,0 C 10,6 C 8,9 C 70 % 1005,1 hPa 0,0 l/m 0 min 0 min 150 W/m 22,5 km/h (4 Bft) 97,87 %
29.04.2021 14:18 10,9 C 10,6 C 8,4 C 72 % 1005,2 hPa 0,0 l/m 0 min 0 min 162 W/m 19,3 km/h (3 Bft) 97,87 %
29.04.2021 14:20 10,8 C 10,6 C 8,9 C 72 % 1005,3 hPa 0,0 l/m 0 min 0 min 202 W/m 35,4 km/h (5 Bft) 97,87 %
29.04.2021 14:22 10,8 C 11,1 C 8,9 C 72 % 1005,3 hPa 0,0 l/m 0 min 0 min 287 W/m 25,7 km/h (4 Bft) 97,87 %
29.04.2021 14:24 10,6 C 11,1 C 8,9 C 73 % 1005,3 hPa 0,0 l/m 2 min 0 min 456 W/m 29,0 km/h (5 Bft) 97,87 %
29.04.2021 14:26 10,7 C 12,2 C 9,5 C 73 % 1005,2 hPa 0,0 l/m 2 min 0 min 530 W/m 29,0 km/h (5 Bft) 97,83 %
29.04.2021 14:28 10,9 C 12,2 C 10,0 C 74 % 1005,4 hPa 0,0 l/m 2 min 0 min 448 W/m 16,1 km/h (3 Bft) 97,87 %
29.04.2021 14:30 11,0 C 11,7 C 9,5 C 73 % 1005,4 hPa 0,0 l/m 0 min 0 min 227 W/m 22,5 km/h (4 Bft) 97,87 %
29.04.2021 14:32 10,9 C 11,1 C 8,9 C 73 % 1005,5 hPa 0,0 l/m 0 min 0 min 302 W/m 32,2 km/h (5 Bft) 97,87 %
29.04.2021 14:34 10,8 C 11,1 C 8,9 C 74 % 1005,5 hPa 0,0 l/m 0 min 0 min 331 W/m 22,5 km/h (4 Bft) 97,87 %
29.04.2021 14:36 10,6 C 10,6 C 8,9 C 74 % 1005,6 hPa 0,0 l/m 0 min 0 min 180 W/m 25,7 km/h (4 Bft) 97,87 %
29.04.2021 14:38 10,5 C 10,6 C 8,4 C 75 % 1005,7 hPa 0,0 l/m 0 min 0 min 139 W/m 22,5 km/h (4 Bft) 95,65 %
29.04.2021 14:40 10,3 C 10,0 C 8,4 C 76 % 1005,8 hPa 0,0 l/m 0 min 0 min 94 W/m 19,3 km/h (3 Bft) 95,74 %
29.04.2021 14:42 10,1 C 9,4 C 7,8 C 77 % 1005,8 hPa 0,0 l/m 0 min 0 min 69 W/m 22,5 km/h (4 Bft) 96,36 %
29.04.2021 14:44 9,8 C 8,9 C 7,3 C 78 % 1005,9 hPa 0,0 l/m 0 min 0 min 66 W/m 19,3 km/h (3 Bft) 96,00 %
29.04.2021 14:46 9,6 C 8,9 C 7,3 C 79 % 1006,1 hPa 0,0 l/m 0 min 0 min 48 W/m 16,1 km/h (3 Bft) 97,92 %
29.04.2021 14:48 9,5 C 8,9 C 7,3 C 79 % 1006,1 hPa 0,0 l/m 0 min 0 min 42 W/m 22,5 km/h (4 Bft) 97,83 %
29.04.2021 14:50 9,4 C 8,9 C 6,7 C 80 % 1006,1 hPa 0,0 l/m 0 min 0 min 41 W/m 16,1 km/h (3 Bft) 97,87 %
29.04.2021 14:52 9,3 C 8,9 C 6,7 C 80 % 1006,1 hPa 0,0 l/m 0 min 0 min 43 W/m 16,1 km/h (3 Bft) 100,00 %
29.04.2021 14:54 9,1 C 8,3 C 6,7 C 81 % 1006,1 hPa 0,0 l/m 0 min 0 min 47 W/m 16,1 km/h (3 Bft) 97,87 %
29.04.2021 14:56 9,1 C 8,9 C 6,7 C 81 % 1006,2 hPa 0,0 l/m 0 min 0 min 51 W/m 12,9 km/h (3 Bft) 93,62 %
29.04.2021 14:58 9,0 C 8,3 C 6,7 C 82 % 1006,2 hPa 0,0 l/m 0 min 0 min 61 W/m 22,5 km/h (4 Bft) 97,87 %
29.04.2021 15:00 9,0 C 8,3 C 6,7 C 82 % 1006,2 hPa 0,0 l/m 0 min 0 min 63 W/m 16,1 km/h (3 Bft) 95,65 %
29.04.2021 15:02 8,9 C 8,3 C 6,7 C 82 % 1006,2 hPa 0,0 l/m 0 min 0 min 61 W/m 12,9 km/h (3 Bft) 97,87 %
29.04.2021 15:04 8,9 C 8,3 C 6,7 C 81 % 1006,3 hPa 0,0 l/m 0 min 0 min 68 W/m 29,0 km/h (5 Bft) 97,87 %
29.04.2021 15:06 8,8 C 8,3 C 6,7 C 81 % 1006,2 hPa 0,0 l/m 0 min 0 min 79 W/m 19,3 km/h (3 Bft) 97,87 %
29.04.2021 15:08 8,8 C 8,3 C 6,7 C 81 % 1006,3 hPa 0,0 l/m 0 min 0 min 103 W/m 22,5 km/h (4 Bft) 97,87 %
29.04.2021 15:10 8,8 C 8,9 C 6,7 C 80 % 1006,4 hPa 0,0 l/m 0 min 0 min 98 W/m 25,7 km/h (4 Bft) 97,87 %
29.04.2021 15:12 8,8 C 8,9 C 6,7 C 80 % 1006,4 hPa 0,0 l/m 0 min 0 min 93 W/m 19,3 km/h (3 Bft) 97,83 %
29.04.2021 15:14 8,8 C 8,3 C 6,7 C 80 % 1006,4 hPa 0,0 l/m 0 min 0 min 75 W/m 22,5 km/h (4 Bft) 97,87 %
29.04.2021 15:16 8,9 C 8,3 C 6,7 C 80 % 1006,4 hPa 0,0 l/m 0 min 0 min 62 W/m 16,1 km/h (3 Bft) 97,87 %
29.04.2021 15:18 8,9 C 8,3 C 6,7 C 79 % 1006,4 hPa 0,0 l/m 0 min 0 min 56 W/m 19,3 km/h (3 Bft) 91,49 %
29.04.2021 15:20 8,9 C 8,3 C 6,7 C 79 % 1006,5 hPa 0,0 l/m 0 min 0 min 47 W/m 9,7 km/h (2 Bft) 97,87 %
29.04.2021 15:22 8,9 C 8,3 C 6,7 C 79 % 1006,5 hPa 0,0 l/m 0 min 0 min 52 W/m 25,7 km/h (4 Bft) 97,83 %
29.04.2021 15:24 8,8 C 8,3 C 6,7 C 79 % 1006,5 hPa 0,0 l/m 0 min 0 min 69 W/m 22,5 km/h (4 Bft) 97,87 %
29.04.2021 15:26 8,8 C 8,3 C 6,7 C 79 % 1006,5 hPa 0,0 l/m 0 min 0 min 63 W/m 16,1 km/h (3 Bft) 97,87 %
29.04.2021 15:28 8,8 C 8,3 C 6,7 C 79 % 1006,6 hPa 0,0 l/m 0 min 0 min 54 W/m 19,3 km/h (3 Bft) 100,00 %
29.04.2021 15:30 8,7 C 8,3 C 6,1 C 79 % 1006,6 hPa 0,0 l/m 0 min 0 min 51 W/m 22,5 km/h (4 Bft) 97,87 %
29.04.2021 15:32 8,6 C 8,3 C 6,1 C 79 % 1006,6 hPa 0,0 l/m 0 min 0 min 48 W/m 32,2 km/h (5 Bft) 100,00 %
29.04.2021 15:34 8,5 C 7,8 C 6,1 C 80 % 1006,6 hPa 0,0 l/m 0 min 0 min 48 W/m 29,0 km/h (5 Bft) 100,00 %
29.04.2021 15:36 8,4 C 7,8 C 6,1 C 81 % 1006,6 hPa 0,0 l/m 0 min 0 min 52 W/m 16,1 km/h (3 Bft) 100,00 %
29.04.2021 15:38 8,3 C 7,8 C 5,6 C 81 % 1006,7 hPa 0,0 l/m 0 min 0 min 59 W/m 22,5 km/h (4 Bft) 100,00 %
29.04.2021 15:40 8,2 C 7,8 C 6,1 C 81 % 1006,7 hPa 0,0 l/m 0 min 0 min 80 W/m 19,3 km/h (3 Bft) 100,00 %
29.04.2021 15:42 8,3 C 8,3 C 6,1 C 81 % 1006,7 hPa 0,0 l/m 0 min 0 min 153 W/m 19,3 km/h (3 Bft) 100,00 %
29.04.2021 15:44 8,3 C 8,3 C 6,1 C 81 % 1006,7 hPa 0,0 l/m 0 min 0 min 139 W/m 22,5 km/h (4 Bft) 100,00 %
29.04.2021 15:46 8,4 C 8,3 C 6,1 C 81 % 1006,7 hPa 0,0 l/m 0 min 0 min 91 W/m 22,5 km/h (4 Bft) 100,00 %
29.04.2021 15:48 8,4 C 8,3 C 6,1 C 80 % 1006,7 hPa 0,0 l/m 0 min 0 min 61 W/m 29,0 km/h (5 Bft) 100,00 %
29.04.2021 15:50 8,3 C 7,8 C 6,1 C 80 % 1006,8 hPa 0,0 l/m 0 min 0 min 69 W/m 32,2 km/h (5 Bft) 100,00 %
29.04.2021 15:52 8,3 C 7,8 C 6,1 C 80 % 1006,8 hPa 0,0 l/m 0 min 0 min 61 W/m 32,2 km/h (5 Bft) 95,74 %
29.04.2021 15:54 8,3 C 7,8 C 6,1 C 81 % 1006,8 hPa 0,0 l/m 0 min 0 min 64 W/m 25,7 km/h (4 Bft) 100,00 %
29.04.2021 15:56 8,2 C 7,8 C 6,1 C 81 % 1006,8 hPa 0,0 l/m 0 min 0 min 84 W/m 19,3 km/h (3 Bft) 100,00 %
29.04.2021 15:58 8,2 C 7,8 C 6,1 C 81 % 1006,9 hPa 0,0 l/m 0 min 0 min 62 W/m 12,9 km/h (3 Bft) 65,96 %
29.04.2021 16:00 8,3 C 7,8 C 6,1 C 81 % 1007,0 hPa 0,0 l/m 0 min 0 min 53 W/m 19,3 km/h (3 Bft) 88,37 %
29.04.2021 16:02 8,3 C 7,8 C 6,1 C 81 % 1007,0 hPa 0,0 l/m 0 min 0 min 63 W/m 38,6 km/h (5 Bft) 97,87 %
29.04.2021 16:04 8,3 C 7,8 C 6,1 C 81 % 1006,9 hPa 0,0 l/m 0 min 0 min 63 W/m 19,3 km/h (3 Bft) 97,87 %
29.04.2021 16:06 8,2 C 7,8 C 5,6 C 81 % 1007,0 hPa 0,0 l/m 0 min 0 min 60 W/m 25,7 km/h (4 Bft) 95,74 %
29.04.2021 16:08 8,2 C 7,8 C 5,6 C 81 % 1007,0 hPa 0,0 l/m 0 min 0 min 68 W/m 16,1 km/h (3 Bft) 97,87 %
29.04.2021 16:10 8,2 C 7,8 C 6,1 C 81 % 1007,0 hPa 0,0 l/m 0 min 0 min 87 W/m 16,1 km/h (3 Bft) 97,83 %
29.04.2021 16:12 8,3 C 7,8 C 6,1 C 81 % 1006,9 hPa 0,0 l/m 0 min 0 min 83 W/m 19,3 km/h (3 Bft) 97,87 %
29.04.2021 16:14 8,3 C 7,8 C 6,1 C 81 % 1007,0 hPa 0,0 l/m 0 min 0 min 98 W/m 16,1 km/h (3 Bft) 97,87 %
29.04.2021 16:16 8,3 C 7,8 C 6,1 C 80 % 1007,0 hPa 0,0 l/m 0 min 0 min 109 W/m 22,5 km/h (4 Bft) 95,74 %
29.04.2021 16:18 8,3 C 8,3 C 6,1 C 80 % 1007,1 hPa 0,0 l/m 0 min 0 min 103 W/m 16,1 km/h (3 Bft) 97,87 %
29.04.2021 16:20 8,4 C 8,3 C 6,1 C 80 % 1007,1 hPa 0,0 l/m 0 min 0 min 93 W/m 19,3 km/h (3 Bft) 97,87 %
29.04.2021 16:22 8,4 C 8,3 C 6,1 C 80 % 1007,1 hPa 0,0 l/m 0 min 0 min 67 W/m 22,5 km/h (4 Bft) 97,83 %
29.04.2021 16:24 8,5 C 8,3 C 6,1 C 80 % 1007,2 hPa 0,0 l/m 0 min 0 min 55 W/m 19,3 km/h (3 Bft) 95,74 %
29.04.2021 16:26 8,5 C 8,3 C 6,1 C 80 % 1007,1 hPa 0,0 l/m 0 min 0 min 52 W/m 19,3 km/h (3 Bft) 97,87 %
29.04.2021 16:28 8,5 C 8,3 C 6,1 C 80 % 1007,1 hPa 0,0 l/m 0 min 0 min 59 W/m 19,3 km/h (3 Bft) 97,87 %
29.04.2021 16:30 8,5 C 8,3 C 6,1 C 80 % 1007,3 hPa 0,0 l/m 0 min 0 min 80 W/m 19,3 km/h (3 Bft) 97,87 %
29.04.2021 16:32 8,5 C 8,3 C 6,1 C 80 % 1007,3 hPa 0,0 l/m 0 min 0 min 89 W/m 22,5 km/h (4 Bft) 97,87 %
29.04.2021 16:34 8,5 C 8,3 C 6,1 C 80 % 1007,4 hPa 0,0 l/m 0 min 0 min 78 W/m 29,0 km/h (5 Bft) 95,65 %
29.04.2021 16:36 8,4 C 8,3 C 6,1 C 80 % 1007,3 hPa 0,0 l/m 0 min 0 min 68 W/m 19,3 km/h (3 Bft) 97,87 %
29.04.2021 16:38 8,5 C 8,3 C 6,1 C 80 % 1007,4 hPa 0,0 l/m 0 min 0 min 94 W/m 35,4 km/h (5 Bft) 97,87 %
29.04.2021 16:40 8,5 C 8,3 C 6,1 C 80 % 1007,3 hPa 0,0 l/m 0 min 0 min 194 W/m 19,3 km/h (3 Bft) 97,87 %
29.04.2021 16:42 8,5 C 8,3 C 6,7 C 80 % 1007,4 hPa 0,0 l/m 0 min 0 min 222 W/m 25,7 km/h (4 Bft) 97,87 %
29.04.2021 16:44 8,6 C 8,9 C 6,7 C 79 % 1007,5 hPa 0,0 l/m 0 min 0 min 188 W/m 25,7 km/h (4 Bft) 93,62 %
29.04.2021 16:46 8,6 C 8,9 C 6,7 C 79 % 1007,5 hPa 0,0 l/m 0 min 0 min 144 W/m 22,5 km/h (4 Bft) 95,65 %
29.04.2021 16:48 8,8 C 8,9 C 6,7 C 79 % 1007,5 hPa 0,0 l/m 0 min 0 min 120 W/m 16,1 km/h (3 Bft) 95,74 %
29.04.2021 16:50 8,8 C 8,9 C 6,7 C 79 % 1007,6 hPa 0,0 l/m 0 min 0 min 117 W/m 19,3 km/h (3 Bft) 93,62 %
29.04.2021 16:52 8,8 C 8,3 C 6,7 C 78 % 1007,6 hPa 0,0 l/m 0 min 0 min 112 W/m 22,5 km/h (4 Bft) 95,74 %
29.04.2021 16:54 8,8 C 8,3 C 6,7 C 79 % 1007,6 hPa 0,0 l/m 0 min 0 min 112 W/m 22,5 km/h (4 Bft) 95,74 %
29.04.2021 16:56 8,8 C 8,3 C 6,7 C 78 % 1007,7 hPa 0,0 l/m 0 min 0 min 99 W/m 29,0 km/h (5 Bft) 95,74 %
29.04.2021 16:58 8,8 C 8,3 C 6,7 C 79 % 1007,6 hPa 0,0 l/m 0 min 0 min 94 W/m 32,2 km/h (5 Bft) 95,65 %
29.04.2021 17:00 8,8 C 8,3 C 6,1 C 78 % 1007,7 hPa 0,0 l/m 0 min 0 min 64 W/m 19,3 km/h (3 Bft) 97,87 %
29.04.2021 17:02 8,8 C 8,3 C 6,1 C 78 % 1007,8 hPa 0,0 l/m 0 min 0 min 50 W/m 16,1 km/h (3 Bft) 95,74 %
29.04.2021 17:04 8,8 C 8,3 C 6,1 C 78 % 1007,7 hPa 0,0 l/m 0 min 0 min 52 W/m 19,3 km/h (3 Bft) 95,74 %
29.04.2021 17:06 8,8 C 8,3 C 6,1 C 78 % 1007,8 hPa 0,0 l/m 0 min 0 min 48 W/m 16,1 km/h (3 Bft) 93,62 %
29.04.2021 17:08 8,8 C 8,3 C 6,1 C 79 % 1007,8 hPa 0,0 l/m 0 min 0 min 41 W/m 29,0 km/h (5 Bft) 93,62 %
29.04.2021 17:10 8,8 C 8,3 C 6,1 C 79 % 1007,9 hPa 0,0 l/m 0 min 0 min 41 W/m 16,1 km/h (3 Bft) 97,83 %
29.04.2021 17:12 8,7 C 8,3 C 6,1 C 79 % 1007,8 hPa 0,0 l/m 0 min 0 min 44 W/m 19,3 km/h (3 Bft) 95,74 %
29.04.2021 17:14 8,7 C 8,3 C 6,1 C 79 % 1007,9 hPa 0,0 l/m 0 min 0 min 33 W/m 16,1 km/h (3 Bft) 95,74 %
29.04.2021 17:16 8,7 C 8,3 C 6,1 C 79 % 1008,0 hPa 0,0 l/m 0 min 0 min 26 W/m 19,3 km/h (3 Bft) 100,00 %
29.04.2021 17:18 8,6 C 7,8 C 6,1 C 79 % 1008,0 hPa 0,0 l/m 0 min 0 min 28 W/m 25,7 km/h (4 Bft) 97,87 %
29.04.2021 17:20 8,5 C 7,8 C 6,1 C 79 % 1008,0 hPa 0,0 l/m 0 min 0 min 29 W/m 22,5 km/h (4 Bft) 97,83 %
29.04.2021 17:22 8,5 C 7,8 C 6,1 C 79 % 1008,0 hPa 0,0 l/m 0 min 0 min 40 W/m 19,3 km/h (3 Bft) 95,74 %
29.04.2021 17:24 8,5 C 7,8 C 6,1 C 80 % 1008,1 hPa 0,0 l/m 0 min 0 min 51 W/m 22,5 km/h (4 Bft) 95,74 %
29.04.2021 17:26 8,5 C 8,3 C 6,1 C 80 % 1008,1 hPa 0,0 l/m 0 min 0 min 80 W/m 19,3 km/h (3 Bft) 97,87 %
29.04.2021 17:28 8,5 C 8,3 C 6,1 C 80 % 1008,1 hPa 0,0 l/m 0 min 0 min 123 W/m 19,3 km/h (3 Bft) 97,87 %
29.04.2021 17:30 8,5 C 8,3 C 6,1 C 79 % 1008,1 hPa 0,0 l/m 0 min 0 min 131 W/m 16,1 km/h (3 Bft) 97,87 %
29.04.2021 17:32 8,5 C 8,3 C 6,1 C 79 % 1008,2 hPa 0,0 l/m 0 min 0 min 146 W/m 22,5 km/h (4 Bft) 97,83 %
29.04.2021 17:34 8,6 C 8,9 C 6,7 C 79 % 1008,1 hPa 0,0 l/m 0 min 0 min 210 W/m 19,3 km/h (3 Bft) 97,87 %
29.04.2021 17:36 8,7 C 9,4 C 6,7 C 79 % 1008,2 hPa 0,0 l/m 2 min 0 min 273 W/m 19,3 km/h (3 Bft) 95,74 %
29.04.2021 17:38 8,9 C 9,4 C 6,7 C 78 % 1008,2 hPa 0,0 l/m 2 min 0 min 256 W/m 19,3 km/h (3 Bft) 97,87 %
29.04.2021 17:40 9,0 C 9,4 C 7,3 C 78 % 1008,2 hPa 0,0 l/m 0 min 0 min 226 W/m 16,1 km/h (3 Bft) 97,87 %
29.04.2021 17:42 9,1 C 9,4 C 7,3 C 77 % 1008,2 hPa 0,0 l/m 0 min 0 min 153 W/m 22,5 km/h (4 Bft) 97,87 %
29.04.2021 17:44 9,1 C 8,9 C 6,7 C 77 % 1008,2 hPa 0,0 l/m 0 min 0 min 76 W/m 12,9 km/h (3 Bft) 97,83 %
29.04.2021 17:46 9,1 C 8,9 C 6,7 C 77 % 1008,3 hPa 0,0 l/m 0 min 0 min 70 W/m 16,1 km/h (3 Bft) 97,87 %
29.04.2021 17:48 9,1 C 8,9 C 6,7 C 76 % 1008,3 hPa 0,0 l/m 0 min 0 min 41 W/m 19,3 km/h (3 Bft) 97,87 %
29.04.2021 17:50 9,0 C 8,3 C 6,7 C 76 % 1008,4 hPa 0,0 l/m 0 min 0 min 31 W/m 19,3 km/h (3 Bft) 97,87 %
29.04.2021 17:52 9,0 C 8,3 C 6,7 C 77 % 1008,4 hPa 0,0 l/m 0 min 0 min 26 W/m 16,1 km/h (3 Bft) 97,87 %
29.04.2021 17:54 9,0 C 8,3 C 6,7 C 77 % 1008,4 hPa 0,0 l/m 0 min 0 min 24 W/m 12,9 km/h (3 Bft) 95,74 %
29.04.2021 17:56 9,0 C 8,3 C 6,1 C 76 % 1008,4 hPa 0,0 l/m 0 min 0 min 27 W/m 12,9 km/h (3 Bft) 97,83 %
29.04.2021 17:58 8,9 C 8,3 C 6,1 C 77 % 1008,5 hPa 0,0 l/m 0 min 0 min 42 W/m 19,3 km/h (3 Bft) 98,00 %
29.04.2021 18:00 8,9 C 8,3 C 6,1 C 76 % 1008,5 hPa 0,0 l/m 0 min 0 min 36 W/m 16,1 km/h (3 Bft) 97,14 %
29.04.2021 18:02 8,9 C 8,3 C 6,1 C 77 % 1008,5 hPa 0,0 l/m 0 min 0 min 34 W/m 16,1 km/h (3 Bft) 95,74 %
29.04.2021 18:04 8,9 C 8,3 C 6,1 C 77 % 1008,5 hPa 0,0 l/m 0 min 0 min 42 W/m 16,1 km/h (3 Bft) 97,87 %
29.04.2021 18:08 8,9 C 8,3 C 6,1 C 77 % 1008,6 hPa 0,0 l/m 0 min 0 min 38 W/m 19,3 km/h (3 Bft) 97,87 %
29.04.2021 18:10 8,9 C 8,3 C 6,1 C 77 % 1008,7 hPa 0,0 l/m 0 min 0 min 33 W/m 19,3 km/h (3 Bft) 95,65 %
29.04.2021 18:12 8,9 C 8,3 C 6,1 C 77 % 1008,7 hPa 0,0 l/m 0 min 0 min 33 W/m 16,1 km/h (3 Bft) 97,87 %
29.04.2021 18:14 8,8 C 8,3 C 6,1 C 77 % 1008,7 hPa 0,0 l/m 0 min 0 min 37 W/m 16,1 km/h (3 Bft) 95,74 %
29.04.2021 18:16 8,8 C 8,3 C 6,1 C 77 % 1008,7 hPa 0,0 l/m 0 min 0 min 38 W/m 16,1 km/h (3 Bft) 97,87 %
29.04.2021 18:18 8,8 C 8,3 C 6,1 C 77 % 1008,8 hPa 0,0 l/m 0 min 0 min 38 W/m 22,5 km/h (4 Bft) 97,87 %
29.04.2021 18:20 8,9 C 8,3 C 6,1 C 77 % 1008,7 hPa 0,0 l/m 0 min 0 min 47 W/m 12,9 km/h (3 Bft) 97,87 %
29.04.2021 18:22 8,9 C 8,3 C 6,1 C 77 % 1008,8 hPa 0,0 l/m 0 min 0 min 60 W/m 16,1 km/h (3 Bft) 97,83 %
29.04.2021 18:24 8,9 C 8,3 C 6,1 C 76 % 1008,8 hPa 0,0 l/m 0 min 0 min 52 W/m 16,1 km/h (3 Bft) 100,00 %
29.04.2021 18:26 8,9 C 8,3 C 6,1 C 76 % 1008,8 hPa 0,0 l/m 0 min 0 min 41 W/m 16,1 km/h (3 Bft) 100,00 %
29.04.2021 18:28 8,9 C 8,3 C 6,1 C 76 % 1008,8 hPa 0,0 l/m 0 min 0 min 42 W/m 19,3 km/h (3 Bft) 100,00 %
29.04.2021 18:30 8,9 C 8,3 C 6,1 C 76 % 1008,9 hPa 0,0 l/m 0 min 0 min 43 W/m 19,3 km/h (3 Bft) 97,87 %
29.04.2021 18:32 8,9 C 8,3 C 6,1 C 76 % 1008,8 hPa 0,0 l/m 0 min 0 min 50 W/m 16,1 km/h (3 Bft) 100,00 %
29.04.2021 18:34 8,9 C 8,3 C 6,1 C 75 % 1008,8 hPa 0,0 l/m 0 min 0 min 60 W/m 12,9 km/h (3 Bft) 97,83 %
29.04.2021 18:36 8,9 C 8,3 C 6,7 C 76 % 1008,9 hPa 0,0 l/m 0 min 0 min 60 W/m 12,9 km/h (3 Bft) 97,87 %
29.04.2021 18:38 8,9 C 8,3 C 6,7 C 76 % 1008,9 hPa 0,0 l/m 0 min 0 min 50 W/m 6,4 km/h (2 Bft) 97,87 %
29.04.2021 18:40 9,0 C 8,3 C 6,7 C 76 % 1008,8 hPa 0,0 l/m 0 min 0 min 41 W/m 6,4 km/h (2 Bft) 93,62 %
29.04.2021 18:42 9,0 C 8,3 C 6,7 C 76 % 1008,8 hPa 0,0 l/m 0 min 0 min 33 W/m 6,4 km/h (2 Bft) 100,00 %
29.04.2021 18:44 9,0 C 8,3 C 6,7 C 76 % 1008,9 hPa 0,0 l/m 0 min 0 min 28 W/m 6,4 km/h (2 Bft) 100,00 %
29.04.2021 18:46 9,0 C 8,3 C 6,7 C 75 % 1008,8 hPa 0,0 l/m 0 min 0 min 26 W/m 12,9 km/h (3 Bft) 100,00 %
29.04.2021 18:48 9,0 C 8,3 C 6,7 C 75 % 1008,8 hPa 0,0 l/m 0 min 0 min 24 W/m 9,7 km/h (2 Bft) 100,00 %
29.04.2021 18:50 9,0 C 8,3 C 6,1 C 75 % 1008,9 hPa 0,0 l/m 0 min 0 min 23 W/m 12,9 km/h (3 Bft) 100,00 %
29.04.2021 18:52 9,0 C 8,3 C 6,1 C 75 % 1008,9 hPa 0,0 l/m 0 min 0 min 26 W/m 12,9 km/h (3 Bft) 95,74 %
29.04.2021 18:54 9,0 C 8,3 C 6,1 C 75 % 1008,9 hPa 0,0 l/m 0 min 0 min 31 W/m 6,4 km/h (2 Bft) 97,87 %
29.04.2021 18:56 9,0 C 8,3 C 6,1 C 74 % 1009,0 hPa 0,0 l/m 0 min 0 min 37 W/m 16,1 km/h (3 Bft) 100,00 %
29.04.2021 18:58 9,0 C 8,3 C 6,1 C 74 % 1009,0 hPa 0,0 l/m 0 min 0 min 39 W/m 12,9 km/h (3 Bft) 100,00 %
29.04.2021 19:00 9,0 C 8,3 C 6,7 C 74 % 1009,0 hPa 0,0 l/m 0 min 0 min 42 W/m 12,9 km/h (3 Bft) 100,00 %
29.04.2021 19:02 9,0 C 8,3 C 6,7 C 74 % 1009,0 hPa 0,0 l/m 0 min 0 min 48 W/m 12,9 km/h (3 Bft) 100,00 %
29.04.2021 19:04 9,0 C 8,3 C 6,7 C 74 % 1009,0 hPa 0,0 l/m 0 min 0 min 44 W/m 12,9 km/h (3 Bft) 95,74 %
29.04.2021 19:06 9,0 C 8,9 C 6,7 C 74 % 1009,0 hPa 0,0 l/m 0 min 0 min 40 W/m 12,9 km/h (3 Bft) 100,00 %
29.04.2021 19:08 9,0 C 8,3 C 6,7 C 74 % 1009,1 hPa 0,0 l/m 0 min 0 min 37 W/m 16,1 km/h (3 Bft) 95,74 %
29.04.2021 19:10 9,0 C 8,3 C 6,1 C 73 % 1009,1 hPa 0,0 l/m 0 min 0 min 31 W/m 12,9 km/h (3 Bft) 97,83 %
29.04.2021 19:12 9,0 C 8,3 C 6,1 C 73 % 1009,1 hPa 0,0 l/m 0 min 0 min 22 W/m 9,7 km/h (2 Bft) 93,62 %
29.04.2021 19:14 9,0 C 8,3 C 6,1 C 73 % 1009,0 hPa 0,0 l/m 0 min 0 min 18 W/m 9,7 km/h (2 Bft) 100,00 %
29.04.2021 19:16 9,0 C 8,3 C 6,1 C 73 % 1009,1 hPa 0,0 l/m 0 min 0 min 16 W/m 9,7 km/h (2 Bft) 93,62 %
29.04.2021 19:18 9,0 C 8,3 C 6,1 C 73 % 1009,1 hPa 0,0 l/m 0 min 0 min 14 W/m 16,1 km/h (3 Bft) 97,87 %
29.04.2021 19:20 9,0 C 8,3 C 6,1 C 73 % 1009,1 hPa 0,0 l/m 0 min 0 min 15 W/m 16,1 km/h (3 Bft) 97,87 %
29.04.2021 19:22 9,0 C 8,3 C 6,1 C 73 % 1009,1 hPa 0,0 l/m 0 min 0 min 14 W/m 12,9 km/h (3 Bft) 95,65 %
29.04.2021 19:24 9,0 C 8,3 C 6,1 C 72 % 1009,2 hPa 0,0 l/m 0 min 0 min 14 W/m 12,9 km/h (3 Bft) 100,00 %
29.04.2021 19:26 9,0 C 8,3 C 6,1 C 72 % 1009,2 hPa 0,0 l/m 0 min 0 min 14 W/m 12,9 km/h (3 Bft) 100,00 %
29.04.2021 19:28 9,0 C 8,3 C 6,1 C 72 % 1009,3 hPa 0,0 l/m 0 min 0 min 14 W/m 12,9 km/h (3 Bft) 100,00 %
29.04.2021 19:30 9,0 C 8,3 C 6,1 C 72 % 1009,3 hPa 0,0 l/m 0 min 0 min 14 W/m 12,9 km/h (3 Bft) 89,36 %
29.04.2021 19:32 9,0 C 8,3 C 6,1 C 72 % 1009,3 hPa 0,0 l/m 0 min 0 min 15 W/m 12,9 km/h (3 Bft) 97,87 %
29.04.2021 19:34 9,0 C 8,3 C 6,1 C 72 % 1009,4 hPa 0,0 l/m 0 min 0 min 16 W/m 12,9 km/h (3 Bft) 82,61 %
29.04.2021 19:36 9,0 C 8,3 C 6,1 C 72 % 1009,4 hPa 0,0 l/m 0 min 0 min 16 W/m 19,3 km/h (3 Bft) 76,60 %
29.04.2021 19:38 9,0 C 8,3 C 6,1 C 71 % 1009,3 hPa 0,0 l/m 0 min 0 min 17 W/m 19,3 km/h (3 Bft) 97,87 %
29.04.2021 19:40 9,0 C 8,3 C 6,1 C 71 % 1009,3 hPa 0,0 l/m 0 min 0 min 19 W/m 16,1 km/h (3 Bft) 97,87 %
29.04.2021 19:42 9,0 C 8,3 C 6,1 C 72 % 1009,4 hPa 0,0 l/m 0 min 0 min 18 W/m 12,9 km/h (3 Bft) 93,62 %
29.04.2021 19:44 9,0 C 8,3 C 6,1 C 71 % 1009,4 hPa 0,0 l/m 0 min 0 min 16 W/m 16,1 km/h (3 Bft) 97,87 %
29.04.2021 19:46 9,0 C 8,3 C 6,1 C 71 % 1009,4 hPa 0,0 l/m 0 min 0 min 12 W/m 16,1 km/h (3 Bft) 95,65 %
29.04.2021 19:48 9,0 C 8,3 C 6,1 C 71 % 1009,4 hPa 0,0 l/m 0 min 0 min 11 W/m 12,9 km/h (3 Bft) 97,87 %
29.04.2021 19:50 9,0 C 8,3 C 6,1 C 72 % 1009,4 hPa 0,0 l/m 0 min 0 min 11 W/m 6,4 km/h (2 Bft) 97,87 %
29.04.2021 19:52 9,0 C 8,3 C 6,1 C 72 % 1009,4 hPa 0,0 l/m 0 min 0 min 11 W/m 9,7 km/h (2 Bft) 97,87 %
29.04.2021 19:54 8,9 C 8,3 C 6,1 C 72 % 1009,4 hPa 0,0 l/m 0 min 0 min 12 W/m 12,9 km/h (3 Bft) 97,87 %
29.04.2021 19:56 8,9 C 8,3 C 6,1 C 72 % 1009,4 hPa 0,0 l/m 0 min 0 min 13 W/m 12,9 km/h (3 Bft) 97,87 %
29.04.2021 19:58 8,9 C 8,3 C 6,1 C 72 % 1009,4 hPa 0,0 l/m 0 min 0 min 15 W/m 16,1 km/h (3 Bft) 100,00 %
29.04.2021 20:00 8,9 C 8,3 C 6,1 C 72 % 1009,4 hPa 0,0 l/m 0 min 0 min 16 W/m 19,3 km/h (3 Bft) 97,87 %
29.04.2021 20:02 8,9 C 8,3 C 6,1 C 72 % 1009,4 hPa 0,0 l/m 0 min 0 min 14 W/m 12,9 km/h (3 Bft) 97,87 %
29.04.2021 20:04 8,9 C 8,3 C 6,1 C 72 % 1009,5 hPa 0,0 l/m 0 min 0 min 14 W/m 6,4 km/h (2 Bft) 97,87 %
29.04.2021 20:06 8,9 C 8,3 C 6,1 C 72 % 1009,5 hPa 0,0 l/m 0 min 0 min 13 W/m 6,4 km/h (2 Bft) 97,87 %
29.04.2021 20:08 8,9 C 8,3 C 6,1 C 72 % 1009,5 hPa 0,0 l/m 0 min 0 min 11 W/m 12,9 km/h (3 Bft) 95,74 %
29.04.2021 20:10 8,9 C 8,3 C 6,1 C 72 % 1009,6 hPa 0,0 l/m 0 min 0 min 11 W/m 9,7 km/h (2 Bft) 93,48 %
29.04.2021 20:12 8,9 C 8,3 C 6,1 C 72 % 1009,5 hPa 0,0 l/m 0 min 0 min 11 W/m 6,4 km/h (2 Bft) 97,87 %
29.04.2021 20:14 8,9 C 8,3 C 6,1 C 72 % 1009,6 hPa 0,0 l/m 0 min 0 min 11 W/m 6,4 km/h (2 Bft) 95,74 %
29.04.2021 20:16 8,9 C 8,3 C 6,1 C 72 % 1009,6 hPa 0,0 l/m 0 min 0 min 9 W/m 12,9 km/h (3 Bft) 95,74 %
29.04.2021 20:18 8,9 C 8,3 C 6,1 C 72 % 1009,6 hPa 0,0 l/m 0 min 0 min 8 W/m 6,4 km/h (2 Bft) 95,74 %
29.04.2021 20:20 8,9 C 8,3 C 6,1 C 72 % 1009,6 hPa 0,0 l/m 0 min 0 min 7 W/m 6,4 km/h (2 Bft) 97,83 %
29.04.2021 20:22 8,9 C 8,3 C 6,1 C 72 % 1009,7 hPa 0,0 l/m 0 min 0 min 7 W/m 6,4 km/h (2 Bft) 95,74 %
29.04.2021 20:24 8,9 C 8,3 C 6,1 C 72 % 1009,7 hPa 0,0 l/m 0 min 0 min 8 W/m 12,9 km/h (3 Bft) 97,87 %
29.04.2021 20:26 8,9 C 8,3 C 6,1 C 72 % 1009,7 hPa 0,0 l/m 0 min 0 min 9 W/m 6,4 km/h (2 Bft) 97,87 %
29.04.2021 20:28 8,9 C 8,3 C 6,1 C 72 % 1009,7 hPa 0,0 l/m 0 min 0 min 9 W/m 12,9 km/h (3 Bft) 97,87 %
29.04.2021 20:30 8,9 C 8,3 C 6,1 C 72 % 1009,7 hPa 0,0 l/m 0 min 0 min 9 W/m 16,1 km/h (3 Bft) 97,87 %
29.04.2021 20:32 8,9 C 8,3 C 6,1 C 72 % 1009,7 hPa 0,0 l/m 0 min 0 min 7 W/m 12,9 km/h (3 Bft) 97,83 %
29.04.2021 20:34 8,9 C 8,3 C 6,1 C 72 % 1009,8 hPa 0,0 l/m 0 min 0 min 7 W/m 9,7 km/h (2 Bft) 93,62 %
29.04.2021 20:36 8,9 C 8,3 C 6,1 C 72 % 1009,7 hPa 0,0 l/m 0 min 0 min 7 W/m 12,9 km/h (3 Bft) 95,74 %
29.04.2021 20:38 8,9 C 8,3 C 6,1 C 72 % 1009,7 hPa 0,0 l/m 0 min 0 min 9 W/m 16,1 km/h (3 Bft) 95,74 %
29.04.2021 20:40 8,9 C 8,3 C 6,1 C 72 % 1009,7 hPa 0,0 l/m 0 min 0 min 7 W/m 16,1 km/h (3 Bft) 95,74 %
29.04.2021 20:42 8,9 C 8,3 C 6,1 C 72 % 1009,7 hPa 0,0 l/m 0 min 0 min 6 W/m 19,3 km/h (3 Bft) 95,74 %
29.04.2021 20:44 8,9 C 8,3 C 6,1 C 72 % 1009,8 hPa 0,0 l/m 0 min 0 min 5 W/m 12,9 km/h (3 Bft) 95,65 %
29.04.2021 20:46 8,9 C 8,3 C 6,1 C 72 % 1009,8 hPa 0,0 l/m 0 min 0 min 0 W/m 12,9 km/h (3 Bft) 91,49 %
29.04.2021 20:48 8,9 C 8,3 C 6,1 C 72 % 1009,8 hPa 0,0 l/m 0 min 0 min 0 W/m 12,9 km/h (3 Bft) 95,74 %
29.04.2021 20:50 8,9 C 8,3 C 6,1 C 72 % 1009,9 hPa 0,0 l/m 0 min 0 min 0 W/m 6,4 km/h (2 Bft) 93,62 %
29.04.2021 20:52 8,9 C 8,3 C 6,1 C 72 % 1009,8 hPa 0,0 l/m 0 min 0 min 0 W/m 19,3 km/h (3 Bft) 95,74 %
29.04.2021 20:54 8,9 C 8,3 C 6,1 C 72 % 1009,9 hPa 0,0 l/m 0 min 0 min 0 W/m 6,4 km/h (2 Bft) 95,74 %
29.04.2021 20:56 8,9 C 8,3 C 6,1 C 72 % 1009,9 hPa 0,0 l/m 0 min 0 min 0 W/m 16,1 km/h (3 Bft) 95,65 %
29.04.2021 20:58 8,9 C 8,3 C 6,1 C 72 % 1009,9 hPa 0,0 l/m 0 min 0 min 0 W/m 12,9 km/h (3 Bft) 95,74 %
29.04.2021 21:00 8,9 C 8,3 C 6,1 C 72 % 1009,9 hPa 0,0 l/m 0 min 0 min 0 W/m 6,4 km/h (2 Bft) 95,74 %
29.04.2021 21:02 8,9 C 8,3 C 6,1 C 72 % 1009,9 hPa 0,0 l/m 0 min 0 min 0 W/m 9,7 km/h (2 Bft) 93,62 %
29.04.2021 21:04 8,9 C 8,3 C 6,1 C 72 % 1009,9 hPa 0,0 l/m 0 min 0 min 0 W/m 6,4 km/h (2 Bft) 95,74 %
29.04.2021 21:06 8,9 C 8,3 C 6,1 C 72 % 1009,9 hPa 0,0 l/m 0 min 0 min 0 W/m 6,4 km/h (2 Bft) 91,49 %
29.04.2021 21:08 8,9 C 8,3 C 6,1 C 72 % 1010,0 hPa 0,0 l/m 0 min 0 min 0 W/m 12,9 km/h (3 Bft) 93,48 %
29.04.2021 21:10 8,9 C 8,3 C 6,1 C 72 % 1010,0 hPa 0,0 l/m 0 min 0 min 0 W/m 6,4 km/h (2 Bft) 93,62 %
29.04.2021 21:12 8,9 C 8,3 C 6,1 C 71 % 1010,1 hPa 0,0 l/m 0 min 0 min 0 W/m 16,1 km/h (3 Bft) 93,62 %
29.04.2021 21:14 8,9 C 8,3 C 6,1 C 71 % 1010,1 hPa 0,0 l/m 0 min 0 min 0 W/m 9,7 km/h (2 Bft) 95,74 %
29.04.2021 21:16 8,9 C 8,3 C 6,1 C 71 % 1010,1 hPa 0,0 l/m 0 min 0 min 0 W/m 6,4 km/h (2 Bft) 95,74 %
29.04.2021 21:18 8,9 C 8,3 C 6,1 C 71 % 1010,1 hPa 0,0 l/m 0 min 0 min 0 W/m 9,7 km/h (2 Bft) 93,62 %
29.04.2021 21:20 8,9 C 8,3 C 6,1 C 71 % 1010,1 hPa 0,0 l/m 0 min 0 min 0 W/m 12,9 km/h (3 Bft) 95,65 %
29.04.2021 21:22 8,9 C 8,3 C 6,1 C 71 % 1010,1 hPa 0,0 l/m 0 min 0 min 0 W/m 12,9 km/h (3 Bft) 95,74 %
29.04.2021 21:24 8,9 C 8,3 C 6,1 C 71 % 1010,2 hPa 0,0 l/m 0 min 0 min 0 W/m 12,9 km/h (3 Bft) 93,62 %
29.04.2021 21:26 8,9 C 8,3 C 6,1 C 72 % 1010,2 hPa 0,0 l/m 0 min 0 min 0 W/m 12,9 km/h (3 Bft) 95,74 %
29.04.2021 21:28 8,9 C 8,3 C 6,1 C 71 % 1010,2 hPa 0,0 l/m 0 min 0 min 0 W/m 16,1 km/h (3 Bft) 95,74 %
29.04.2021 21:30 8,9 C 8,3 C 6,1 C 71 % 1010,2 hPa 0,0 l/m 0 min 0 min 0 W/m 16,1 km/h (3 Bft) 100,00 %
29.04.2021 21:32 8,9 C 8,3 C 6,1 C 71 % 1010,3 hPa 0,0 l/m 0 min 0 min 0 W/m 22,5 km/h (4 Bft) 97,83 %
29.04.2021 21:34 8,9 C 8,3 C 6,1 C 71 % 1010,3 hPa 0,0 l/m 0 min 0 min 0 W/m 32,2 km/h (5 Bft) 100,00 %
29.04.2021 21:36 8,9 C 8,3 C 6,1 C 71 % 1010,3 hPa 0,0 l/m 0 min 0 min 0 W/m 19,3 km/h (3 Bft) 100,00 %
29.04.2021 21:38 8,9 C 8,3 C 6,1 C 71 % 1010,4 hPa 0,0 l/m 0 min 0 min 0 W/m 12,9 km/h (3 Bft) 97,87 %
29.04.2021 21:40 8,9 C 8,3 C 6,1 C 71 % 1010,4 hPa 0,0 l/m 0 min 0 min 0 W/m 12,9 km/h (3 Bft) 100,00 %
29.04.2021 21:42 8,9 C 8,3 C 6,1 C 71 % 1010,4 hPa 0,0 l/m 0 min 0 min 0 W/m 16,1 km/h (3 Bft) 100,00 %
29.04.2021 21:44 8,9 C 8,3 C 6,1 C 71 % 1010,4 hPa 0,0 l/m 0 min 0 min 0 W/m 16,1 km/h (3 Bft) 100,00 %
29.04.2021 21:46 8,9 C 8,3 C 6,1 C 71 % 1010,4 hPa 0,0 l/m 0 min 0 min 0 W/m 12,9 km/h (3 Bft) 95,74 %
29.04.2021 21:48 8,9 C 8,3 C 6,1 C 71 % 1010,5 hPa 0,0 l/m 0 min 0 min 0 W/m 12,9 km/h (3 Bft) 97,87 %
29.04.2021 21:50 8,9 C 8,3 C 6,1 C 71 % 1010,5 hPa 0,0 l/m 0 min 0 min 0 W/m 16,1 km/h (3 Bft) 100,00 %
29.04.2021 21:52 8,8 C 8,3 C 6,1 C 71 % 1010,5 hPa 0,0 l/m 0 min 0 min 0 W/m 12,9 km/h (3 Bft) 100,00 %
29.04.2021 21:54 8,8 C 8,3 C 6,1 C 71 % 1010,5 hPa 0,0 l/m 0 min 0 min 0 W/m 12,9 km/h (3 Bft) 100,00 %
29.04.2021 21:56 8,8 C 8,3 C 6,1 C 71 % 1010,6 hPa 0,0 l/m 0 min 0 min 0 W/m 12,9 km/h (3 Bft) 97,87 %
29.04.2021 21:58 8,8 C 7,8 C 6,1 C 71 % 1010,6 hPa 0,0 l/m 0 min 0 min 0 W/m 16,1 km/h (3 Bft) 97,87 %
29.04.2021 22:00 8,8 C 7,8 C 5,6 C 71 % 1010,6 hPa 0,0 l/m 0 min 0 min 0 W/m 6,4 km/h (2 Bft) 100,00 %
29.04.2021 22:02 8,8 C 7,8 C 5,6 C 71 % 1010,5 hPa 0,0 l/m 0 min 0 min 0 W/m 12,9 km/h (3 Bft) 95,74 %
29.04.2021 22:04 8,7 C 7,8 C 5,6 C 71 % 1010,6 hPa 0,0 l/m 0 min 0 min 0 W/m 12,9 km/h (3 Bft) 97,87 %
29.04.2021 22:06 8,6 C 7,8 C 5,6 C 71 % 1010,6 hPa 0,0 l/m 0 min 0 min 0 W/m 16,1 km/h (3 Bft) 97,83 %
29.04.2021 22:08 8,5 C 7,8 C 5,6 C 72 % 1010,6 hPa 0,0 l/m 0 min 0 min 0 W/m 25,7 km/h (4 Bft) 100,00 %
29.04.2021 22:10 8,5 C 7,8 C 5,6 C 72 % 1010,6 hPa 0,0 l/m 0 min 0 min 0 W/m 19,3 km/h (3 Bft) 100,00 %
29.04.2021 22:12 8,4 C 7,8 C 5,6 C 72 % 1010,7 hPa 0,0 l/m 0 min 0 min 0 W/m 16,1 km/h (3 Bft) 95,74 %
29.04.2021 22:14 8,4 C 7,8 C 5,0 C 73 % 1010,7 hPa 0,0 l/m 0 min 0 min 0 W/m 19,3 km/h (3 Bft) 97,87 %
29.04.2021 22:16 8,3 C 7,8 C 5,0 C 73 % 1010,8 hPa 0,0 l/m 0 min 0 min 0 W/m 22,5 km/h (4 Bft) 97,87 %
29.04.2021 22:18 8,3 C 7,2 C 5,0 C 73 % 1010,7 hPa 0,0 l/m 0 min 0 min 0 W/m 22,5 km/h (4 Bft) 95,65 %
29.04.2021 22:20 8,2 C 7,2 C 5,0 C 74 % 1010,7 hPa 0,0 l/m 0 min 0 min 0 W/m 19,3 km/h (3 Bft) 97,87 %
29.04.2021 22:22 8,1 C 7,2 C 5,0 C 74 % 1010,7 hPa 0,0 l/m 0 min 0 min 0 W/m 12,9 km/h (3 Bft) 93,62 %
29.04.2021 22:24 8,1 C 7,2 C 5,0 C 74 % 1010,7 hPa 0,0 l/m 0 min 0 min 0 W/m 19,3 km/h (3 Bft) 95,74 %
29.04.2021 22:26 8,0 C 7,2 C 5,0 C 74 % 1010,8 hPa 0,0 l/m 0 min 0 min 0 W/m 12,9 km/h (3 Bft) 97,87 %
29.04.2021 22:28 8,0 C 7,2 C 5,0 C 75 % 1010,7 hPa 0,0 l/m 0 min 0 min 0 W/m 16,1 km/h (3 Bft) 95,74 %
29.04.2021 22:30 8,0 C 7,2 C 5,0 C 75 % 1010,7 hPa 0,0 l/m 0 min 0 min 0 W/m 12,9 km/h (3 Bft) 97,83 %
29.04.2021 22:32 7,9 C 7,2 C 5,0 C 75 % 1010,8 hPa 0,0 l/m 0 min 0 min 0 W/m 16,1 km/h (3 Bft) 97,87 %
29.04.2021 22:34 7,9 C 7,2 C 5,0 C 76 % 1010,8 hPa 0,0 l/m 0 min 0 min 0 W/m 16,1 km/h (3 Bft) 97,87 %
29.04.2021 22:36 7,9 C 7,2 C 5,0 C 76 % 1010,8 hPa 0,0 l/m 0 min 0 min 0 W/m 16,1 km/h (3 Bft) 95,74 %
29.04.2021 22:38 7,8 C 7,2 C 5,0 C 76 % 1010,9 hPa 0,0 l/m 0 min 0 min 0 W/m 9,7 km/h (2 Bft) 97,87 %
29.04.2021 22:40 7,8 C 7,2 C 5,0 C 77 % 1010,9 hPa 0,0 l/m 0 min 0 min 0 W/m 16,1 km/h (3 Bft) 95,74 %
29.04.2021 22:42 7,8 C 7,2 C 5,0 C 77 % 1010,9 hPa 0,0 l/m 0 min 0 min 0 W/m 16,1 km/h (3 Bft) 97,83 %
29.04.2021 22:44 7,8 C 7,2 C 5,0 C 77 % 1010,9 hPa 0,0 l/m 0 min 0 min 0 W/m 9,7 km/h (2 Bft) 97,87 %
29.04.2021 22:46 7,8 C 7,2 C 4,5 C 77 % 1010,8 hPa 0,0 l/m 0 min 0 min 0 W/m 9,7 km/h (2 Bft) 97,87 %
29.04.2021 22:48 7,7 C 6,7 C 4,5 C 77 % 1010,8 hPa 0,0 l/m 0 min 0 min 0 W/m 12,9 km/h (3 Bft) 97,87 %
29.04.2021 22:50 7,6 C 6,7 C 4,5 C 77 % 1010,9 hPa 0,0 l/m 0 min 0 min 0 W/m 12,9 km/h (3 Bft) 97,87 %
29.04.2021 22:52 7,6 C 6,7 C 4,5 C 77 % 1010,9 hPa 0,0 l/m 0 min 0 min 0 W/m 9,7 km/h (2 Bft) 97,87 %
29.04.2021 22:54 7,6 C 6,7 C 4,5 C 78 % 1010,9 hPa 0,0 l/m 0 min 0 min 0 W/m 9,7 km/h (2 Bft) 97,83 %
29.04.2021 22:56 7,6 C 6,7 C 4,5 C 78 % 1011,0 hPa 0,0 l/m 0 min 0 min 0 W/m 12,9 km/h (3 Bft) 100,00 %
29.04.2021 22:58 7,6 C 6,7 C 4,5 C 78 % 1010,9 hPa 0,0 l/m 0 min 0 min 0 W/m 12,9 km/h (3 Bft) 97,87 %
29.04.2021 23:00 7,6 C 7,2 C 4,5 C 78 % 1011,0 hPa 0,0 l/m 0 min 0 min 0 W/m 19,3 km/h (3 Bft) 100,00 %
29.04.2021 23:02 7,6 C 7,2 C 4,5 C 78 % 1011,0 hPa 0,0 l/m 0 min 0 min 0 W/m 12,9 km/h (3 Bft) 100,00 %
29.04.2021 23:04 7,6 C 7,2 C 4,5 C 78 % 1011,0 hPa 0,0 l/m 0 min 0 min 0 W/m 12,9 km/h (3 Bft) 100,00 %
29.04.2021 23:06 7,6 C 7,2 C 4,5 C 78 % 1011,1 hPa 0,0 l/m 0 min 0 min 0 W/m 12,9 km/h (3 Bft) 100,00 %
29.04.2021 23:08 7,6 C 7,2 C 4,5 C 78 % 1011,1 hPa 0,0 l/m 0 min 0 min 0 W/m 6,4 km/h (2 Bft) 100,00 %
29.04.2021 23:10 7,5 C 6,7 C 4,5 C 79 % 1011,2 hPa 0,0 l/m 0 min 0 min 0 W/m 16,1 km/h (3 Bft) 97,87 %
29.04.2021 23:12 7,5 C 6,7 C 4,5 C 78 % 1011,1 hPa 0,0 l/m 0 min 0 min 0 W/m 12,9 km/h (3 Bft) 100,00 %
29.04.2021 23:14 7,5 C 6,7 C 4,5 C 78 % 1011,1 hPa 0,0 l/m 0 min 0 min 0 W/m 16,1 km/h (3 Bft) 100,00 %
29.04.2021 23:16 7,5 C 6,7 C 4,5 C 79 % 1011,1 hPa 0,0 l/m 0 min 0 min 0 W/m 12,9 km/h (3 Bft) 98,28 %
29.04.2021 23:18 7,5 C 6,7 C 4,5 C 79 % 1011,1 hPa 0,0 l/m 0 min 0 min 0 W/m 6,4 km/h (2 Bft) 100,00 %
29.04.2021 23:20 7,5 C 6,7 C 4,5 C 79 % 1011,1 hPa 0,0 l/m 0 min 0 min 0 W/m 9,7 km/h (2 Bft) 97,14 %
29.04.2021 23:22 7,4 C 6,7 C 4,5 C 79 % 1011,2 hPa 0,0 l/m 0 min 0 min 0 W/m 12,9 km/h (3 Bft) 100,00 %
29.04.2021 23:24 7,4 C 6,7 C 4,5 C 79 % 1011,1 hPa 0,0 l/m 0 min 0 min 0 W/m 12,9 km/h (3 Bft) 100,00 %
29.04.2021 23:26 7,4 C 6,7 C 4,5 C 79 % 1011,2 hPa 0,0 l/m 0 min 0 min 0 W/m 12,9 km/h (3 Bft) 100,00 %
29.04.2021 23:28 7,4 C 6,7 C 4,5 C 80 % 1011,2 hPa 0,0 l/m 0 min 0 min 0 W/m 6,4 km/h (2 Bft) 100,00 %
29.04.2021 23:30 7,4 C 6,7 C 4,5 C 80 % 1011,2 hPa 0,0 l/m 0 min 0 min 0 W/m 19,3 km/h (3 Bft) 100,00 %
29.04.2021 23:32 7,3 C 6,7 C 4,5 C 80 % 1011,2 hPa 0,0 l/m 0 min 0 min 0 W/m 12,9 km/h (3 Bft) 100,00 %
29.04.2021 23:34 7,3 C 6,7 C 4,5 C 80 % 1011,2 hPa 0,0 l/m 0 min 0 min 0 W/m 9,7 km/h (2 Bft) 97,87 %
29.04.2021 23:36 7,3 C 6,7 C 4,5 C 80 % 1011,3 hPa 0,0 l/m 0 min 0 min 0 W/m 16,1 km/h (3 Bft) 100,00 %
29.04.2021 23:38 7,3 C 6,7 C 4,5 C 80 % 1011,3 hPa 0,0 l/m 0 min 0 min 0 W/m 9,7 km/h (2 Bft) 97,87 %
29.04.2021 23:40 7,3 C 6,7 C 4,5 C 80 % 1011,4 hPa 0,0 l/m 0 min 0 min 0 W/m 25,7 km/h (4 Bft) 97,83 %
29.04.2021 23:42 7,3 C 6,7 C 4,5 C 80 % 1011,3 hPa 0,0 l/m 0 min 0 min 0 W/m 12,9 km/h (3 Bft) 100,00 %
29.04.2021 23:44 7,3 C 6,7 C 4,5 C 80 % 1011,4 hPa 0,0 l/m 0 min 0 min 0 W/m 12,9 km/h (3 Bft) 95,74 %
29.04.2021 23:46 7,3 C 6,7 C 4,5 C 80 % 1011,3 hPa 0,0 l/m 0 min 0 min 0 W/m 9,7 km/h (2 Bft) 97,87 %
29.04.2021 23:48 7,3 C 6,7 C 4,5 C 80 % 1011,3 hPa 0,0 l/m 0 min 0 min 0 W/m 12,9 km/h (3 Bft) 97,87 %
29.04.2021 23:50 7,3 C 6,7 C 4,5 C 80 % 1011,4 hPa 0,0 l/m 0 min 0 min 0 W/m 16,1 km/h (3 Bft) 97,87 %
29.04.2021 23:52 7,2 C 6,7 C 4,5 C 80 % 1011,4 hPa 0,0 l/m 0 min 0 min 0 W/m 16,1 km/h (3 Bft) 95,74 %
29.04.2021 23:54 7,2 C 6,7 C 4,5 C 80 % 1011,4 hPa 0,0 l/m 0 min 0 min 0 W/m 6,4 km/h (2 Bft) 97,83 %
29.04.2021 23:56 7,2 C 6,7 C 4,5 C 80 % 1011,5 hPa 0,0 l/m 0 min 0 min 0 W/m 16,1 km/h (3 Bft) 53,49 %
29.04.2021 23:58 7,2 C 6,7 C 4,5 C 80 % 1011,5 hPa 0,0 l/m 0 min 0 min 0 W/m 12,9 km/h (3 Bft) 95,74 %
_ Min-Zeit 23:52 22:48 22:46 00:04 02:20 - - - - 00:02 05:24
Minimum _ 7,2 C 6,7 C 4,5 C 52 % 1000,2 hPa - - - - 0,0 km/h (0 Bft) 53,33 %
_ Max-Zeit 00:00 12:28 12:28 14:58 23:56 00:00 11:00 00:00 13:20 10:38 00:56
Maximum _ 14,8 C 16,1 C 18,4 C 82 % 1011,5 hPa 0,0 l/m 5 min 0 min 1018 W/m 67,6 km/h
S-SO (8 Bft)
100,00 %
Durchschnitt _ 10,5 C 10,3 C 8,2 C 72 % 1004,7 hPa #0,0 l/m #3:26 h #0 min. 201 W/m 16,3 km/h (3 Bft) 97,12 %
© 2021 W. Hausmann